<?xml version="1.0" encoding="UTF-8" standalone="no" ?>
<gpx xmlns="http://www.topografix.com/GPX/1/1" xmlns:xsi="http://www.w3.org/2001/XMLSchema-instance" xsi:schemaLocation="http://www.topografix.com/GPX/1/1 http://www.topografix.com/GPX/1/1/gpx.xsd" version="1.1" creator="VisuGPX - https://www.visugpx.com">
  <metadata>
    <name>RAndo Bezaudun-Vierou-4 Chemins</name>
    <desc><![CDATA[Rando le 8 Décembre 2013
Pierre-Linda-Guy-Bernard
  un chien au retour...]]></desc>
  </metadata>
  <trk>
    <name><![CDATA[2013-12-08 10:25]]></name>
    <desc><![CDATA[<h1>OruxMaps</h1><br /><hr align="center" width="480" style="height: 2px; width: 517px"/><h2>Nom: 2013-12-08 10:25</h2><br /><p>Temps de départ: 12/08/2013 10:25</p><p>Temps d'arrivée: 12/08/2013 16:07</p><p>Distance: 14,1 km (05:41)</p><p>Temps déplacement: 04:30</p><p>Vitesse moyenne: 2,5 km/h</p><p>Vitesse moyenne: 3,1 km/h</p><p>Vitess Max.: 6,7 km/h</p><p>Altitude minimale: 781 m</p><p>Altitude maximale: 1380 m</p><p>Vitesse d'élévation: 341 m/h</p><p>Vitesse de descente: -282,4 m/h</p><p>Gain Altitude: 803 m</p><p>Perte Altitude: -811 m</p><p>Temps d'élévation: 02:21</p><p>Temps de descente: 02:52</p><hr align="center" width="480" style="height: 2px; width: 517px"/>]]></desc>
    <trkseg>
      <trkpt lat="43.80675" lon="7.09611">
        <ele>902.67</ele>
        <time>2013-12-08T09:25:18Z</time>
      </trkpt>
      <trkpt lat="43.80669" lon="7.09635">
        <ele>898.6</ele>
        <time>2013-12-08T09:29:31Z</time>
      </trkpt>
      <trkpt lat="43.80685" lon="7.09623">
        <ele>900.41</ele>
        <time>2013-12-08T09:30:18Z</time>
      </trkpt>
      <trkpt lat="43.80703" lon="7.09628">
        <ele>899.55</ele>
        <time>2013-12-08T09:30:46Z</time>
      </trkpt>
      <trkpt lat="43.80722" lon="7.09631">
        <ele>899.11</ele>
        <time>2013-12-08T09:31:07Z</time>
      </trkpt>
      <trkpt lat="43.80739" lon="7.09637">
        <ele>898.33</ele>
        <time>2013-12-08T09:31:31Z</time>
      </trkpt>
      <trkpt lat="43.80757" lon="7.09628">
        <ele>898.31</ele>
        <time>2013-12-08T09:31:52Z</time>
      </trkpt>
      <trkpt lat="43.80776" lon="7.09629">
        <ele>894.69</ele>
        <time>2013-12-08T09:32:08Z</time>
      </trkpt>
      <trkpt lat="43.80772" lon="7.09605">
        <ele>898.88</ele>
        <time>2013-12-08T09:33:14Z</time>
      </trkpt>
      <trkpt lat="43.80757" lon="7.09589">
        <ele>903.69</ele>
        <time>2013-12-08T09:34:06Z</time>
      </trkpt>
      <trkpt lat="43.80776" lon="7.09584">
        <ele>900.3</ele>
        <time>2013-12-08T09:37:20Z</time>
      </trkpt>
      <trkpt lat="43.80794" lon="7.09578">
        <ele>894.66</ele>
        <time>2013-12-08T09:37:45Z</time>
      </trkpt>
      <trkpt lat="43.80808" lon="7.09562">
        <ele>891.89</ele>
        <time>2013-12-08T09:38:03Z</time>
      </trkpt>
      <trkpt lat="43.80808" lon="7.09537">
        <ele>894.84</ele>
        <time>2013-12-08T09:38:20Z</time>
      </trkpt>
      <trkpt lat="43.80808" lon="7.09512">
        <ele>897</ele>
        <time>2013-12-08T09:38:43Z</time>
      </trkpt>
      <trkpt lat="43.80809" lon="7.09486">
        <ele>895.71</ele>
        <time>2013-12-08T09:39:02Z</time>
      </trkpt>
      <trkpt lat="43.80809" lon="7.0946">
        <ele>894.41</ele>
        <time>2013-12-08T09:39:20Z</time>
      </trkpt>
      <trkpt lat="43.80809" lon="7.09434">
        <ele>896.12</ele>
        <time>2013-12-08T09:39:42Z</time>
      </trkpt>
      <trkpt lat="43.80815" lon="7.0941">
        <ele>896.9</ele>
        <time>2013-12-08T09:40:00Z</time>
      </trkpt>
      <trkpt lat="43.80831" lon="7.09393">
        <ele>893.98</ele>
        <time>2013-12-08T09:40:27Z</time>
      </trkpt>
      <trkpt lat="43.80836" lon="7.09369">
        <ele>896.78</ele>
        <time>2013-12-08T09:40:48Z</time>
      </trkpt>
      <trkpt lat="43.80842" lon="7.09345">
        <ele>896.62</ele>
        <time>2013-12-08T09:41:09Z</time>
      </trkpt>
      <trkpt lat="43.80849" lon="7.09321">
        <ele>898.62</ele>
        <time>2013-12-08T09:41:28Z</time>
      </trkpt>
      <trkpt lat="43.80853" lon="7.09296">
        <ele>902.2</ele>
        <time>2013-12-08T09:41:49Z</time>
      </trkpt>
      <trkpt lat="43.80852" lon="7.09271">
        <ele>905</ele>
        <time>2013-12-08T09:42:14Z</time>
      </trkpt>
      <trkpt lat="43.80849" lon="7.09246">
        <ele>908</ele>
        <time>2013-12-08T09:42:35Z</time>
      </trkpt>
      <trkpt lat="43.80847" lon="7.09221">
        <ele>910.25</ele>
        <time>2013-12-08T09:42:56Z</time>
      </trkpt>
      <trkpt lat="43.80845" lon="7.09195">
        <ele>913.23</ele>
        <time>2013-12-08T09:43:15Z</time>
      </trkpt>
      <trkpt lat="43.80843" lon="7.09169">
        <ele>914.15</ele>
        <time>2013-12-08T09:43:33Z</time>
      </trkpt>
      <trkpt lat="43.80842" lon="7.09143">
        <ele>912.99</ele>
        <time>2013-12-08T09:43:51Z</time>
      </trkpt>
      <trkpt lat="43.80842" lon="7.09118">
        <ele>908.41</ele>
        <time>2013-12-08T09:44:10Z</time>
      </trkpt>
      <trkpt lat="43.80841" lon="7.09092">
        <ele>903.89</ele>
        <time>2013-12-08T09:44:29Z</time>
      </trkpt>
      <trkpt lat="43.80842" lon="7.09066">
        <ele>900.14</ele>
        <time>2013-12-08T09:44:46Z</time>
      </trkpt>
      <trkpt lat="43.80846" lon="7.09042">
        <ele>892.59</ele>
        <time>2013-12-08T09:45:03Z</time>
      </trkpt>
      <trkpt lat="43.80847" lon="7.09015">
        <ele>883.18</ele>
        <time>2013-12-08T09:45:23Z</time>
      </trkpt>
      <trkpt lat="43.80834" lon="7.08997">
        <ele>881.74</ele>
        <time>2013-12-08T09:45:39Z</time>
      </trkpt>
      <trkpt lat="43.80822" lon="7.08977">
        <ele>879.32</ele>
        <time>2013-12-08T09:45:55Z</time>
      </trkpt>
      <trkpt lat="43.80809" lon="7.0896">
        <ele>879.12</ele>
        <time>2013-12-08T09:46:11Z</time>
      </trkpt>
      <trkpt lat="43.80797" lon="7.0894">
        <ele>882.62</ele>
        <time>2013-12-08T09:46:28Z</time>
      </trkpt>
      <trkpt lat="43.80785" lon="7.08922">
        <ele>889.07</ele>
        <time>2013-12-08T09:46:45Z</time>
      </trkpt>
      <trkpt lat="43.80772" lon="7.08902">
        <ele>893.16</ele>
        <time>2013-12-08T09:47:02Z</time>
      </trkpt>
      <trkpt lat="43.80761" lon="7.08881">
        <ele>895.67</ele>
        <time>2013-12-08T09:47:21Z</time>
      </trkpt>
      <trkpt lat="43.80748" lon="7.08864">
        <ele>900.42</ele>
        <time>2013-12-08T09:48:12Z</time>
      </trkpt>
      <trkpt lat="43.8074" lon="7.08841">
        <ele>900.36</ele>
        <time>2013-12-08T09:48:44Z</time>
      </trkpt>
      <trkpt lat="43.80735" lon="7.08816">
        <ele>898.88</ele>
        <time>2013-12-08T09:49:17Z</time>
      </trkpt>
      <trkpt lat="43.80728" lon="7.08793">
        <ele>898.37</ele>
        <time>2013-12-08T09:49:35Z</time>
      </trkpt>
      <trkpt lat="43.8072" lon="7.0877">
        <ele>897.96</ele>
        <time>2013-12-08T09:49:53Z</time>
      </trkpt>
      <trkpt lat="43.80714" lon="7.08745">
        <ele>896.9</ele>
        <time>2013-12-08T09:50:08Z</time>
      </trkpt>
      <trkpt lat="43.80706" lon="7.08722">
        <ele>895.44</ele>
        <time>2013-12-08T09:50:31Z</time>
      </trkpt>
      <trkpt lat="43.80699" lon="7.08699">
        <ele>897.01</ele>
        <time>2013-12-08T09:50:51Z</time>
      </trkpt>
      <trkpt lat="43.80687" lon="7.0868">
        <ele>900.53</ele>
        <time>2013-12-08T09:51:10Z</time>
      </trkpt>
      <trkpt lat="43.80681" lon="7.08657">
        <ele>903.45</ele>
        <time>2013-12-08T09:51:31Z</time>
      </trkpt>
      <trkpt lat="43.80675" lon="7.08631">
        <ele>908.74</ele>
        <time>2013-12-08T09:51:50Z</time>
      </trkpt>
      <trkpt lat="43.80668" lon="7.08607">
        <ele>914.72</ele>
        <time>2013-12-08T09:52:06Z</time>
      </trkpt>
      <trkpt lat="43.80657" lon="7.08584">
        <ele>919.83</ele>
        <time>2013-12-08T09:52:25Z</time>
      </trkpt>
      <trkpt lat="43.80676" lon="7.0858">
        <ele>920.3</ele>
        <time>2013-12-08T09:53:34Z</time>
      </trkpt>
      <trkpt lat="43.80659" lon="7.08572">
        <ele>924.01</ele>
        <time>2013-12-08T09:54:09Z</time>
      </trkpt>
      <trkpt lat="43.80644" lon="7.08587">
        <ele>919.41</ele>
        <time>2013-12-08T09:54:38Z</time>
      </trkpt>
      <trkpt lat="43.80654" lon="7.08608">
        <ele>915.46</ele>
        <time>2013-12-08T09:55:10Z</time>
      </trkpt>
      <trkpt lat="43.80641" lon="7.08591">
        <ele>918.78</ele>
        <time>2013-12-08T09:56:18Z</time>
      </trkpt>
      <trkpt lat="43.80624" lon="7.08579">
        <ele>921.57</ele>
        <time>2013-12-08T09:56:52Z</time>
      </trkpt>
      <trkpt lat="43.80609" lon="7.08565">
        <ele>928.41</ele>
        <time>2013-12-08T09:57:14Z</time>
      </trkpt>
      <trkpt lat="43.806" lon="7.08543">
        <ele>937.03</ele>
        <time>2013-12-08T09:57:53Z</time>
      </trkpt>
      <trkpt lat="43.80587" lon="7.08526">
        <ele>942.07</ele>
        <time>2013-12-08T09:58:34Z</time>
      </trkpt>
      <trkpt lat="43.80569" lon="7.08527">
        <ele>942.22</ele>
        <time>2013-12-08T09:59:06Z</time>
      </trkpt>
      <trkpt lat="43.8055" lon="7.08524">
        <ele>943.28</ele>
        <time>2013-12-08T10:00:01Z</time>
      </trkpt>
      <trkpt lat="43.80533" lon="7.08518">
        <ele>945.71</ele>
        <time>2013-12-08T10:01:37Z</time>
      </trkpt>
      <trkpt lat="43.80517" lon="7.08505">
        <ele>951.32</ele>
        <time>2013-12-08T10:01:58Z</time>
      </trkpt>
      <trkpt lat="43.80502" lon="7.08493">
        <ele>956.73</ele>
        <time>2013-12-08T10:02:29Z</time>
      </trkpt>
      <trkpt lat="43.80487" lon="7.08476">
        <ele>962.98</ele>
        <time>2013-12-08T10:03:07Z</time>
      </trkpt>
      <trkpt lat="43.80475" lon="7.08457">
        <ele>968.32</ele>
        <time>2013-12-08T10:03:44Z</time>
      </trkpt>
      <trkpt lat="43.80469" lon="7.08434">
        <ele>973.09</ele>
        <time>2013-12-08T10:04:14Z</time>
      </trkpt>
      <trkpt lat="43.80451" lon="7.08427">
        <ele>979.77</ele>
        <time>2013-12-08T10:04:56Z</time>
      </trkpt>
      <trkpt lat="43.80454" lon="7.08401">
        <ele>982.35</ele>
        <time>2013-12-08T10:05:35Z</time>
      </trkpt>
      <trkpt lat="43.8045" lon="7.08377">
        <ele>986.34</ele>
        <time>2013-12-08T10:05:59Z</time>
      </trkpt>
      <trkpt lat="43.80447" lon="7.08351">
        <ele>989.9</ele>
        <time>2013-12-08T10:06:26Z</time>
      </trkpt>
      <trkpt lat="43.80442" lon="7.08326">
        <ele>994.12</ele>
        <time>2013-12-08T10:06:50Z</time>
      </trkpt>
      <trkpt lat="43.80447" lon="7.08302">
        <ele>997.19</ele>
        <time>2013-12-08T10:07:13Z</time>
      </trkpt>
      <trkpt lat="43.8045" lon="7.08276">
        <ele>999.72</ele>
        <time>2013-12-08T10:07:49Z</time>
      </trkpt>
      <trkpt lat="43.80439" lon="7.08256">
        <ele>1007.07</ele>
        <time>2013-12-08T10:08:34Z</time>
      </trkpt>
      <trkpt lat="43.80424" lon="7.0824">
        <ele>1011.61</ele>
        <time>2013-12-08T10:09:02Z</time>
      </trkpt>
      <trkpt lat="43.80406" lon="7.08237">
        <ele>1014.21</ele>
        <time>2013-12-08T10:09:27Z</time>
      </trkpt>
      <trkpt lat="43.80392" lon="7.08221">
        <ele>1019.21</ele>
        <time>2013-12-08T10:10:00Z</time>
      </trkpt>
      <trkpt lat="43.80375" lon="7.08212">
        <ele>1019.68</ele>
        <time>2013-12-08T10:10:31Z</time>
      </trkpt>
      <trkpt lat="43.80358" lon="7.08203">
        <ele>1020</ele>
        <time>2013-12-08T10:11:12Z</time>
      </trkpt>
      <trkpt lat="43.8034" lon="7.082">
        <ele>1020</ele>
        <time>2013-12-08T10:11:38Z</time>
      </trkpt>
      <trkpt lat="43.80333" lon="7.08176">
        <ele>1024.82</ele>
        <time>2013-12-08T10:12:14Z</time>
      </trkpt>
      <trkpt lat="43.80319" lon="7.0816">
        <ele>1032.91</ele>
        <time>2013-12-08T10:12:58Z</time>
      </trkpt>
      <trkpt lat="43.80305" lon="7.08145">
        <ele>1037.87</ele>
        <time>2013-12-08T10:13:31Z</time>
      </trkpt>
      <trkpt lat="43.80304" lon="7.08119">
        <ele>1039.46</ele>
        <time>2013-12-08T10:13:58Z</time>
      </trkpt>
      <trkpt lat="43.8029" lon="7.08103">
        <ele>1040.9</ele>
        <time>2013-12-08T10:14:26Z</time>
      </trkpt>
      <trkpt lat="43.80277" lon="7.08085">
        <ele>1043.96</ele>
        <time>2013-12-08T10:14:59Z</time>
      </trkpt>
      <trkpt lat="43.80275" lon="7.0806">
        <ele>1046.48</ele>
        <time>2013-12-08T10:15:30Z</time>
      </trkpt>
      <trkpt lat="43.80264" lon="7.0804">
        <ele>1051.84</ele>
        <time>2013-12-08T10:16:10Z</time>
      </trkpt>
      <trkpt lat="43.80247" lon="7.0805">
        <ele>1056.41</ele>
        <time>2013-12-08T10:16:44Z</time>
      </trkpt>
      <trkpt lat="43.80233" lon="7.08033">
        <ele>1062.5</ele>
        <time>2013-12-08T10:17:10Z</time>
      </trkpt>
      <trkpt lat="43.80216" lon="7.08044">
        <ele>1066.85</ele>
        <time>2013-12-08T10:17:37Z</time>
      </trkpt>
      <trkpt lat="43.80201" lon="7.0806">
        <ele>1070.71</ele>
        <time>2013-12-08T10:18:13Z</time>
      </trkpt>
      <trkpt lat="43.80187" lon="7.08076">
        <ele>1077.61</ele>
        <time>2013-12-08T10:18:53Z</time>
      </trkpt>
      <trkpt lat="43.8017" lon="7.08083">
        <ele>1086.5</ele>
        <time>2013-12-08T10:19:37Z</time>
      </trkpt>
      <trkpt lat="43.80152" lon="7.08079">
        <ele>1089.3</ele>
        <time>2013-12-08T10:20:08Z</time>
      </trkpt>
      <trkpt lat="43.80133" lon="7.08073">
        <ele>1090.31</ele>
        <time>2013-12-08T10:20:36Z</time>
      </trkpt>
      <trkpt lat="43.80118" lon="7.08059">
        <ele>1091.43</ele>
        <time>2013-12-08T10:25:25Z</time>
      </trkpt>
      <trkpt lat="43.80106" lon="7.08041">
        <ele>1093.5</ele>
        <time>2013-12-08T10:25:45Z</time>
      </trkpt>
      <trkpt lat="43.80097" lon="7.08018">
        <ele>1096.08</ele>
        <time>2013-12-08T10:26:10Z</time>
      </trkpt>
      <trkpt lat="43.80091" lon="7.07994">
        <ele>1098.44</ele>
        <time>2013-12-08T10:26:45Z</time>
      </trkpt>
      <trkpt lat="43.8009" lon="7.07968">
        <ele>1101.32</ele>
        <time>2013-12-08T10:27:20Z</time>
      </trkpt>
      <trkpt lat="43.8008" lon="7.07947">
        <ele>1109</ele>
        <time>2013-12-08T10:28:01Z</time>
      </trkpt>
      <trkpt lat="43.80073" lon="7.07924">
        <ele>1117.41</ele>
        <time>2013-12-08T10:29:03Z</time>
      </trkpt>
      <trkpt lat="43.80077" lon="7.07899">
        <ele>1123.21</ele>
        <time>2013-12-08T10:29:26Z</time>
      </trkpt>
      <trkpt lat="43.80071" lon="7.07874">
        <ele>1128.99</ele>
        <time>2013-12-08T10:29:56Z</time>
      </trkpt>
      <trkpt lat="43.80075" lon="7.0785">
        <ele>1135.49</ele>
        <time>2013-12-08T10:30:27Z</time>
      </trkpt>
      <trkpt lat="43.80079" lon="7.07825">
        <ele>1140.87</ele>
        <time>2013-12-08T10:31:03Z</time>
      </trkpt>
      <trkpt lat="43.80088" lon="7.07803">
        <ele>1144.49</ele>
        <time>2013-12-08T10:31:37Z</time>
      </trkpt>
      <trkpt lat="43.80096" lon="7.07779">
        <ele>1148.27</ele>
        <time>2013-12-08T10:32:10Z</time>
      </trkpt>
      <trkpt lat="43.80104" lon="7.07757">
        <ele>1150.51</ele>
        <time>2013-12-08T10:32:39Z</time>
      </trkpt>
      <trkpt lat="43.80109" lon="7.07732">
        <ele>1154.39</ele>
        <time>2013-12-08T10:33:08Z</time>
      </trkpt>
      <trkpt lat="43.80115" lon="7.07708">
        <ele>1157.55</ele>
        <time>2013-12-08T10:33:33Z</time>
      </trkpt>
      <trkpt lat="43.80123" lon="7.07686">
        <ele>1159.78</ele>
        <time>2013-12-08T10:34:00Z</time>
      </trkpt>
      <trkpt lat="43.80133" lon="7.07665">
        <ele>1161.31</ele>
        <time>2013-12-08T10:34:28Z</time>
      </trkpt>
      <trkpt lat="43.80142" lon="7.07642">
        <ele>1164.65</ele>
        <time>2013-12-08T10:34:55Z</time>
      </trkpt>
      <trkpt lat="43.8015" lon="7.07619">
        <ele>1166.81</ele>
        <time>2013-12-08T10:35:18Z</time>
      </trkpt>
      <trkpt lat="43.80134" lon="7.07606">
        <ele>1172.42</ele>
        <time>2013-12-08T10:35:53Z</time>
      </trkpt>
      <trkpt lat="43.80121" lon="7.07589">
        <ele>1176.82</ele>
        <time>2013-12-08T10:36:29Z</time>
      </trkpt>
      <trkpt lat="43.80122" lon="7.07564">
        <ele>1180.5</ele>
        <time>2013-12-08T10:36:57Z</time>
      </trkpt>
      <trkpt lat="43.80117" lon="7.07539">
        <ele>1184.65</ele>
        <time>2013-12-08T10:37:24Z</time>
      </trkpt>
      <trkpt lat="43.8011" lon="7.07517">
        <ele>1188.12</ele>
        <time>2013-12-08T10:37:47Z</time>
      </trkpt>
      <trkpt lat="43.80107" lon="7.07492">
        <ele>1190.92</ele>
        <time>2013-12-08T10:38:07Z</time>
      </trkpt>
      <trkpt lat="43.80102" lon="7.07468">
        <ele>1193.89</ele>
        <time>2013-12-08T10:38:40Z</time>
      </trkpt>
      <trkpt lat="43.80106" lon="7.07444">
        <ele>1197.68</ele>
        <time>2013-12-08T10:39:19Z</time>
      </trkpt>
      <trkpt lat="43.80103" lon="7.0742">
        <ele>1199.45</ele>
        <time>2013-12-08T10:39:46Z</time>
      </trkpt>
      <trkpt lat="43.80099" lon="7.07395">
        <ele>1202.22</ele>
        <time>2013-12-08T10:40:13Z</time>
      </trkpt>
      <trkpt lat="43.80099" lon="7.0737">
        <ele>1204.69</ele>
        <time>2013-12-08T10:40:45Z</time>
      </trkpt>
      <trkpt lat="43.80095" lon="7.07345">
        <ele>1207.39</ele>
        <time>2013-12-08T10:41:12Z</time>
      </trkpt>
      <trkpt lat="43.80098" lon="7.0732">
        <ele>1210.09</ele>
        <time>2013-12-08T10:41:39Z</time>
      </trkpt>
      <trkpt lat="43.80092" lon="7.07296">
        <ele>1213.48</ele>
        <time>2013-12-08T10:42:03Z</time>
      </trkpt>
      <trkpt lat="43.80086" lon="7.07272">
        <ele>1216.34</ele>
        <time>2013-12-08T10:42:25Z</time>
      </trkpt>
      <trkpt lat="43.8008" lon="7.07249">
        <ele>1220.5</ele>
        <time>2013-12-08T10:42:49Z</time>
      </trkpt>
      <trkpt lat="43.80073" lon="7.07226">
        <ele>1223.74</ele>
        <time>2013-12-08T10:45:31Z</time>
      </trkpt>
      <trkpt lat="43.80076" lon="7.072">
        <ele>1225.42</ele>
        <time>2013-12-08T10:46:00Z</time>
      </trkpt>
      <trkpt lat="43.8007" lon="7.07176">
        <ele>1228.4</ele>
        <time>2013-12-08T10:46:26Z</time>
      </trkpt>
      <trkpt lat="43.80072" lon="7.07151">
        <ele>1230.97</ele>
        <time>2013-12-08T10:46:56Z</time>
      </trkpt>
      <trkpt lat="43.80074" lon="7.07126">
        <ele>1232.96</ele>
        <time>2013-12-08T10:47:29Z</time>
      </trkpt>
      <trkpt lat="43.80073" lon="7.07101">
        <ele>1235.23</ele>
        <time>2013-12-08T10:47:58Z</time>
      </trkpt>
      <trkpt lat="43.80074" lon="7.07076">
        <ele>1237.96</ele>
        <time>2013-12-08T10:48:24Z</time>
      </trkpt>
      <trkpt lat="43.80078" lon="7.07051">
        <ele>1240.26</ele>
        <time>2013-12-08T10:48:48Z</time>
      </trkpt>
      <trkpt lat="43.80073" lon="7.07026">
        <ele>1243.65</ele>
        <time>2013-12-08T10:49:13Z</time>
      </trkpt>
      <trkpt lat="43.80077" lon="7.07001">
        <ele>1246.65</ele>
        <time>2013-12-08T10:49:36Z</time>
      </trkpt>
      <trkpt lat="43.80065" lon="7.06982">
        <ele>1251.56</ele>
        <time>2013-12-08T10:50:02Z</time>
      </trkpt>
      <trkpt lat="43.80063" lon="7.06958">
        <ele>1255.01</ele>
        <time>2013-12-08T10:50:33Z</time>
      </trkpt>
      <trkpt lat="43.80063" lon="7.06933">
        <ele>1258.01</ele>
        <time>2013-12-08T10:51:16Z</time>
      </trkpt>
      <trkpt lat="43.80055" lon="7.0691">
        <ele>1262.53</ele>
        <time>2013-12-08T10:51:53Z</time>
      </trkpt>
      <trkpt lat="43.80049" lon="7.06886">
        <ele>1265.64</ele>
        <time>2013-12-08T10:52:30Z</time>
      </trkpt>
      <trkpt lat="43.80035" lon="7.0687">
        <ele>1271</ele>
        <time>2013-12-08T10:53:10Z</time>
      </trkpt>
      <trkpt lat="43.80023" lon="7.06851">
        <ele>1276.62</ele>
        <time>2013-12-08T10:53:42Z</time>
      </trkpt>
      <trkpt lat="43.80013" lon="7.06829">
        <ele>1282.08</ele>
        <time>2013-12-08T10:54:20Z</time>
      </trkpt>
      <trkpt lat="43.8001" lon="7.06804">
        <ele>1285.52</ele>
        <time>2013-12-08T10:54:52Z</time>
      </trkpt>
      <trkpt lat="43.8001" lon="7.06779">
        <ele>1290.08</ele>
        <time>2013-12-08T10:55:25Z</time>
      </trkpt>
      <trkpt lat="43.80007" lon="7.06751">
        <ele>1295.55</ele>
        <time>2013-12-08T10:56:00Z</time>
      </trkpt>
      <trkpt lat="43.79995" lon="7.0673">
        <ele>1300.08</ele>
        <time>2013-12-08T10:56:42Z</time>
      </trkpt>
      <trkpt lat="43.79995" lon="7.06705">
        <ele>1304.73</ele>
        <time>2013-12-08T10:57:19Z</time>
      </trkpt>
      <trkpt lat="43.79991" lon="7.06681">
        <ele>1310.96</ele>
        <time>2013-12-08T10:57:44Z</time>
      </trkpt>
      <trkpt lat="43.79986" lon="7.06657">
        <ele>1316.5</ele>
        <time>2013-12-08T10:58:25Z</time>
      </trkpt>
      <trkpt lat="43.79982" lon="7.06632">
        <ele>1320.78</ele>
        <time>2013-12-08T10:58:56Z</time>
      </trkpt>
      <trkpt lat="43.79972" lon="7.06611">
        <ele>1325.03</ele>
        <time>2013-12-08T10:59:24Z</time>
      </trkpt>
      <trkpt lat="43.7996" lon="7.06591">
        <ele>1330.05</ele>
        <time>2013-12-08T10:59:42Z</time>
      </trkpt>
      <trkpt lat="43.79959" lon="7.06566">
        <ele>1332.98</ele>
        <time>2013-12-08T11:00:00Z</time>
      </trkpt>
      <trkpt lat="43.79952" lon="7.06542">
        <ele>1337.27</ele>
        <time>2013-12-08T11:00:27Z</time>
      </trkpt>
      <trkpt lat="43.79947" lon="7.06518">
        <ele>1341.14</ele>
        <time>2013-12-08T11:00:51Z</time>
      </trkpt>
      <trkpt lat="43.7994" lon="7.06494">
        <ele>1343.39</ele>
        <time>2013-12-08T11:01:14Z</time>
      </trkpt>
      <trkpt lat="43.79932" lon="7.06471">
        <ele>1345.19</ele>
        <time>2013-12-08T11:01:37Z</time>
      </trkpt>
      <trkpt lat="43.79928" lon="7.06446">
        <ele>1347.58</ele>
        <time>2013-12-08T11:02:02Z</time>
      </trkpt>
      <trkpt lat="43.79929" lon="7.06422">
        <ele>1349.56</ele>
        <time>2013-12-08T11:02:22Z</time>
      </trkpt>
      <trkpt lat="43.79929" lon="7.06396">
        <ele>1352.15</ele>
        <time>2013-12-08T11:02:40Z</time>
      </trkpt>
      <trkpt lat="43.7993" lon="7.0637">
        <ele>1355.01</ele>
        <time>2013-12-08T11:03:02Z</time>
      </trkpt>
      <trkpt lat="43.79929" lon="7.06345">
        <ele>1357.12</ele>
        <time>2013-12-08T11:03:24Z</time>
      </trkpt>
      <trkpt lat="43.79935" lon="7.06321">
        <ele>1360</ele>
        <time>2013-12-08T11:03:50Z</time>
      </trkpt>
      <trkpt lat="43.79944" lon="7.06299">
        <ele>1363.91</ele>
        <time>2013-12-08T11:04:19Z</time>
      </trkpt>
      <trkpt lat="43.79949" lon="7.06274">
        <ele>1366.98</ele>
        <time>2013-12-08T11:04:44Z</time>
      </trkpt>
      <trkpt lat="43.79951" lon="7.06249">
        <ele>1368.7</ele>
        <time>2013-12-08T11:05:12Z</time>
      </trkpt>
      <trkpt lat="43.79954" lon="7.06224">
        <ele>1371.71</ele>
        <time>2013-12-08T11:05:41Z</time>
      </trkpt>
      <trkpt lat="43.79958" lon="7.06199">
        <ele>1374.83</ele>
        <time>2013-12-08T11:06:05Z</time>
      </trkpt>
      <trkpt lat="43.79957" lon="7.06174">
        <ele>1377.13</ele>
        <time>2013-12-08T11:06:45Z</time>
      </trkpt>
      <trkpt lat="43.79958" lon="7.06149">
        <ele>1378.8</ele>
        <time>2013-12-08T11:07:03Z</time>
      </trkpt>
      <trkpt lat="43.79962" lon="7.06125">
        <ele>1379.69</ele>
        <time>2013-12-08T11:07:18Z</time>
      </trkpt>
      <trkpt lat="43.79963" lon="7.06099">
        <ele>1380</ele>
        <time>2013-12-08T11:07:37Z</time>
      </trkpt>
      <trkpt lat="43.79964" lon="7.06073">
        <ele>1380</ele>
        <time>2013-12-08T11:07:56Z</time>
      </trkpt>
      <trkpt lat="43.79965" lon="7.06047">
        <ele>1380</ele>
        <time>2013-12-08T11:08:17Z</time>
      </trkpt>
      <trkpt lat="43.79966" lon="7.06021">
        <ele>1380</ele>
        <time>2013-12-08T11:08:39Z</time>
      </trkpt>
      <trkpt lat="43.79968" lon="7.05996">
        <ele>1380</ele>
        <time>2013-12-08T11:09:02Z</time>
      </trkpt>
      <trkpt lat="43.79967" lon="7.05971">
        <ele>1380</ele>
        <time>2013-12-08T11:11:58Z</time>
      </trkpt>
      <trkpt lat="43.7997" lon="7.05946">
        <ele>1380</ele>
        <time>2013-12-08T11:12:16Z</time>
      </trkpt>
      <trkpt lat="43.7997" lon="7.05903">
        <ele>1380</ele>
        <time>2013-12-08T11:12:43Z</time>
      </trkpt>
      <trkpt lat="43.79969" lon="7.05877">
        <ele>1379.27</ele>
        <time>2013-12-08T11:13:12Z</time>
      </trkpt>
      <trkpt lat="43.79962" lon="7.05854">
        <ele>1378.27</ele>
        <time>2013-12-08T11:13:42Z</time>
      </trkpt>
      <trkpt lat="43.79962" lon="7.05827">
        <ele>1376.48</ele>
        <time>2013-12-08T11:13:59Z</time>
      </trkpt>
      <trkpt lat="43.79965" lon="7.05802">
        <ele>1374.58</ele>
        <time>2013-12-08T11:14:22Z</time>
      </trkpt>
      <trkpt lat="43.7997" lon="7.05778">
        <ele>1373.9</ele>
        <time>2013-12-08T11:15:16Z</time>
      </trkpt>
      <trkpt lat="43.79978" lon="7.05801">
        <ele>1374.22</ele>
        <time>2013-12-08T11:16:28Z</time>
      </trkpt>
      <trkpt lat="43.79984" lon="7.05825">
        <ele>1374.75</ele>
        <time>2013-12-08T11:17:37Z</time>
      </trkpt>
      <trkpt lat="43.79994" lon="7.05846">
        <ele>1374.3</ele>
        <time>2013-12-08T11:19:44Z</time>
      </trkpt>
      <trkpt lat="43.79986" lon="7.05823">
        <ele>1374.5</ele>
        <time>2013-12-08T11:56:26Z</time>
      </trkpt>
      <trkpt lat="43.7999" lon="7.05798">
        <ele>1372.75</ele>
        <time>2013-12-08T11:56:48Z</time>
      </trkpt>
      <trkpt lat="43.7999" lon="7.05773">
        <ele>1371.9</ele>
        <time>2013-12-08T11:57:11Z</time>
      </trkpt>
      <trkpt lat="43.79988" lon="7.05747">
        <ele>1371.17</ele>
        <time>2013-12-08T11:57:34Z</time>
      </trkpt>
      <trkpt lat="43.79987" lon="7.05722">
        <ele>1369.94</ele>
        <time>2013-12-08T11:57:57Z</time>
      </trkpt>
      <trkpt lat="43.79983" lon="7.05696">
        <ele>1369.3</ele>
        <time>2013-12-08T11:58:21Z</time>
      </trkpt>
      <trkpt lat="43.79988" lon="7.05672">
        <ele>1368.03</ele>
        <time>2013-12-08T11:58:42Z</time>
      </trkpt>
      <trkpt lat="43.79992" lon="7.05647">
        <ele>1366.87</ele>
        <time>2013-12-08T11:59:05Z</time>
      </trkpt>
      <trkpt lat="43.79999" lon="7.05624">
        <ele>1365.52</ele>
        <time>2013-12-08T11:59:26Z</time>
      </trkpt>
      <trkpt lat="43.80003" lon="7.05598">
        <ele>1364.11</ele>
        <time>2013-12-08T11:59:46Z</time>
      </trkpt>
      <trkpt lat="43.80006" lon="7.05573">
        <ele>1362.89</ele>
        <time>2013-12-08T12:00:08Z</time>
      </trkpt>
      <trkpt lat="43.80006" lon="7.05547">
        <ele>1362.18</ele>
        <time>2013-12-08T12:00:26Z</time>
      </trkpt>
      <trkpt lat="43.79999" lon="7.05522">
        <ele>1362.78</ele>
        <time>2013-12-08T12:00:46Z</time>
      </trkpt>
      <trkpt lat="43.79994" lon="7.05498">
        <ele>1361.69</ele>
        <time>2013-12-08T12:01:00Z</time>
      </trkpt>
      <trkpt lat="43.79993" lon="7.05473">
        <ele>1360.74</ele>
        <time>2013-12-08T12:01:23Z</time>
      </trkpt>
      <trkpt lat="43.79989" lon="7.05446">
        <ele>1359.66</ele>
        <time>2013-12-08T12:01:39Z</time>
      </trkpt>
      <trkpt lat="43.79986" lon="7.0542">
        <ele>1355.98</ele>
        <time>2013-12-08T12:01:59Z</time>
      </trkpt>
      <trkpt lat="43.79988" lon="7.05395">
        <ele>1354.4</ele>
        <time>2013-12-08T12:02:19Z</time>
      </trkpt>
      <trkpt lat="43.79993" lon="7.05371">
        <ele>1352.59</ele>
        <time>2013-12-08T12:02:38Z</time>
      </trkpt>
      <trkpt lat="43.79996" lon="7.05347">
        <ele>1351.62</ele>
        <time>2013-12-08T12:03:00Z</time>
      </trkpt>
      <trkpt lat="43.79998" lon="7.05322">
        <ele>1351.65</ele>
        <time>2013-12-08T12:03:16Z</time>
      </trkpt>
      <trkpt lat="43.79993" lon="7.05297">
        <ele>1352.11</ele>
        <time>2013-12-08T12:03:37Z</time>
      </trkpt>
      <trkpt lat="43.79986" lon="7.05274">
        <ele>1351.62</ele>
        <time>2013-12-08T12:03:56Z</time>
      </trkpt>
      <trkpt lat="43.7998" lon="7.0525">
        <ele>1352.43</ele>
        <time>2013-12-08T12:04:20Z</time>
      </trkpt>
      <trkpt lat="43.79977" lon="7.05225">
        <ele>1351.9</ele>
        <time>2013-12-08T12:04:46Z</time>
      </trkpt>
      <trkpt lat="43.79991" lon="7.05207">
        <ele>1351.51</ele>
        <time>2013-12-08T12:05:35Z</time>
      </trkpt>
      <trkpt lat="43.80004" lon="7.05188">
        <ele>1353.61</ele>
        <time>2013-12-08T12:05:59Z</time>
      </trkpt>
      <trkpt lat="43.80014" lon="7.05167">
        <ele>1358.47</ele>
        <time>2013-12-08T12:06:18Z</time>
      </trkpt>
      <trkpt lat="43.80028" lon="7.05149">
        <ele>1359.62</ele>
        <time>2013-12-08T12:06:32Z</time>
      </trkpt>
      <trkpt lat="43.80036" lon="7.05127">
        <ele>1359.49</ele>
        <time>2013-12-08T12:06:55Z</time>
      </trkpt>
      <trkpt lat="43.80055" lon="7.05126">
        <ele>1358.36</ele>
        <time>2013-12-08T12:07:27Z</time>
      </trkpt>
      <trkpt lat="43.80072" lon="7.05138">
        <ele>1354.71</ele>
        <time>2013-12-08T12:07:45Z</time>
      </trkpt>
      <trkpt lat="43.80089" lon="7.05148">
        <ele>1351.76</ele>
        <time>2013-12-08T12:08:08Z</time>
      </trkpt>
      <trkpt lat="43.80104" lon="7.0516">
        <ele>1349.2</ele>
        <time>2013-12-08T12:08:31Z</time>
      </trkpt>
      <trkpt lat="43.80123" lon="7.05159">
        <ele>1348.05</ele>
        <time>2013-12-08T12:08:51Z</time>
      </trkpt>
      <trkpt lat="43.80139" lon="7.05169">
        <ele>1346.9</ele>
        <time>2013-12-08T12:09:41Z</time>
      </trkpt>
      <trkpt lat="43.80156" lon="7.05177">
        <ele>1345.36</ele>
        <time>2013-12-08T12:09:58Z</time>
      </trkpt>
      <trkpt lat="43.80173" lon="7.05188">
        <ele>1343.55</ele>
        <time>2013-12-08T12:10:15Z</time>
      </trkpt>
      <trkpt lat="43.8019" lon="7.05198">
        <ele>1341.24</ele>
        <time>2013-12-08T12:10:32Z</time>
      </trkpt>
      <trkpt lat="43.80209" lon="7.05198">
        <ele>1339.8</ele>
        <time>2013-12-08T12:10:47Z</time>
      </trkpt>
      <trkpt lat="43.80227" lon="7.05193">
        <ele>1338.83</ele>
        <time>2013-12-08T12:11:05Z</time>
      </trkpt>
      <trkpt lat="43.80242" lon="7.05179">
        <ele>1338.29</ele>
        <time>2013-12-08T12:11:25Z</time>
      </trkpt>
      <trkpt lat="43.80256" lon="7.05163">
        <ele>1338.14</ele>
        <time>2013-12-08T12:11:43Z</time>
      </trkpt>
      <trkpt lat="43.80271" lon="7.05149">
        <ele>1338.64</ele>
        <time>2013-12-08T12:12:01Z</time>
      </trkpt>
      <trkpt lat="43.8029" lon="7.05152">
        <ele>1338.09</ele>
        <time>2013-12-08T12:12:20Z</time>
      </trkpt>
      <trkpt lat="43.80308" lon="7.0515">
        <ele>1337.47</ele>
        <time>2013-12-08T12:12:39Z</time>
      </trkpt>
      <trkpt lat="43.80324" lon="7.05137">
        <ele>1337.54</ele>
        <time>2013-12-08T12:13:02Z</time>
      </trkpt>
      <trkpt lat="43.80334" lon="7.05158">
        <ele>1334.8</ele>
        <time>2013-12-08T12:13:49Z</time>
      </trkpt>
      <trkpt lat="43.8035" lon="7.05146">
        <ele>1331.59</ele>
        <time>2013-12-08T12:14:05Z</time>
      </trkpt>
      <trkpt lat="43.80366" lon="7.05132">
        <ele>1328.17</ele>
        <time>2013-12-08T12:14:26Z</time>
      </trkpt>
      <trkpt lat="43.8038" lon="7.05115">
        <ele>1325.31</ele>
        <time>2013-12-08T12:14:42Z</time>
      </trkpt>
      <trkpt lat="43.80397" lon="7.05102">
        <ele>1321.76</ele>
        <time>2013-12-08T12:15:03Z</time>
      </trkpt>
      <trkpt lat="43.80411" lon="7.05087">
        <ele>1319.83</ele>
        <time>2013-12-08T12:15:21Z</time>
      </trkpt>
      <trkpt lat="43.80428" lon="7.05076">
        <ele>1313.37</ele>
        <time>2013-12-08T12:15:43Z</time>
      </trkpt>
      <trkpt lat="43.8044" lon="7.05057">
        <ele>1308.29</ele>
        <time>2013-12-08T12:16:03Z</time>
      </trkpt>
      <trkpt lat="43.80449" lon="7.05035">
        <ele>1306.88</ele>
        <time>2013-12-08T12:16:19Z</time>
      </trkpt>
      <trkpt lat="43.80453" lon="7.0501">
        <ele>1307.4</ele>
        <time>2013-12-08T12:16:37Z</time>
      </trkpt>
      <trkpt lat="43.8046" lon="7.04986">
        <ele>1307.62</ele>
        <time>2013-12-08T12:16:56Z</time>
      </trkpt>
      <trkpt lat="43.80461" lon="7.0496">
        <ele>1309.08</ele>
        <time>2013-12-08T12:17:20Z</time>
      </trkpt>
      <trkpt lat="43.80466" lon="7.04935">
        <ele>1310.06</ele>
        <time>2013-12-08T12:17:44Z</time>
      </trkpt>
      <trkpt lat="43.8047" lon="7.04911">
        <ele>1310.73</ele>
        <time>2013-12-08T12:18:04Z</time>
      </trkpt>
      <trkpt lat="43.8047" lon="7.04886">
        <ele>1312.45</ele>
        <time>2013-12-08T12:18:31Z</time>
      </trkpt>
      <trkpt lat="43.80471" lon="7.0486">
        <ele>1314.09</ele>
        <time>2013-12-08T12:18:56Z</time>
      </trkpt>
      <trkpt lat="43.80476" lon="7.04836">
        <ele>1312.88</ele>
        <time>2013-12-08T12:19:21Z</time>
      </trkpt>
      <trkpt lat="43.80471" lon="7.04812">
        <ele>1316.67</ele>
        <time>2013-12-08T12:19:52Z</time>
      </trkpt>
      <trkpt lat="43.80472" lon="7.04787">
        <ele>1318.41</ele>
        <time>2013-12-08T12:20:16Z</time>
      </trkpt>
      <trkpt lat="43.80469" lon="7.04762">
        <ele>1319.87</ele>
        <time>2013-12-08T12:20:42Z</time>
      </trkpt>
      <trkpt lat="43.80477" lon="7.04736">
        <ele>1319.76</ele>
        <time>2013-12-08T12:21:02Z</time>
      </trkpt>
      <trkpt lat="43.80493" lon="7.04723">
        <ele>1317.53</ele>
        <time>2013-12-08T12:21:30Z</time>
      </trkpt>
      <trkpt lat="43.80508" lon="7.0471">
        <ele>1314.68</ele>
        <time>2013-12-08T12:21:58Z</time>
      </trkpt>
      <trkpt lat="43.80521" lon="7.04692">
        <ele>1312.76</ele>
        <time>2013-12-08T12:22:29Z</time>
      </trkpt>
      <trkpt lat="43.8053" lon="7.0467">
        <ele>1314</ele>
        <time>2013-12-08T12:22:58Z</time>
      </trkpt>
      <trkpt lat="43.80543" lon="7.04652">
        <ele>1314.79</ele>
        <time>2013-12-08T12:23:16Z</time>
      </trkpt>
      <trkpt lat="43.80557" lon="7.04635">
        <ele>1315.07</ele>
        <time>2013-12-08T12:23:43Z</time>
      </trkpt>
      <trkpt lat="43.80572" lon="7.04621">
        <ele>1312.41</ele>
        <time>2013-12-08T12:24:03Z</time>
      </trkpt>
      <trkpt lat="43.80582" lon="7.04599">
        <ele>1312.49</ele>
        <time>2013-12-08T12:24:22Z</time>
      </trkpt>
      <trkpt lat="43.80598" lon="7.04586">
        <ele>1310.29</ele>
        <time>2013-12-08T12:24:45Z</time>
      </trkpt>
      <trkpt lat="43.80615" lon="7.04574">
        <ele>1307.49</ele>
        <time>2013-12-08T12:25:07Z</time>
      </trkpt>
      <trkpt lat="43.80633" lon="7.04574">
        <ele>1303.36</ele>
        <time>2013-12-08T12:25:31Z</time>
      </trkpt>
      <trkpt lat="43.80649" lon="7.04563">
        <ele>1299.86</ele>
        <time>2013-12-08T12:25:50Z</time>
      </trkpt>
      <trkpt lat="43.80663" lon="7.04547">
        <ele>1298.22</ele>
        <time>2013-12-08T12:26:16Z</time>
      </trkpt>
      <trkpt lat="43.80677" lon="7.0453">
        <ele>1293.47</ele>
        <time>2013-12-08T12:26:41Z</time>
      </trkpt>
      <trkpt lat="43.8069" lon="7.04512">
        <ele>1288.11</ele>
        <time>2013-12-08T12:27:03Z</time>
      </trkpt>
      <trkpt lat="43.80705" lon="7.04497">
        <ele>1284.69</ele>
        <time>2013-12-08T12:27:23Z</time>
      </trkpt>
      <trkpt lat="43.8072" lon="7.04483">
        <ele>1281.71</ele>
        <time>2013-12-08T12:27:46Z</time>
      </trkpt>
      <trkpt lat="43.80735" lon="7.04468">
        <ele>1273.5</ele>
        <time>2013-12-08T12:28:08Z</time>
      </trkpt>
      <trkpt lat="43.80749" lon="7.04451">
        <ele>1265.08</ele>
        <time>2013-12-08T12:28:37Z</time>
      </trkpt>
      <trkpt lat="43.80767" lon="7.04445">
        <ele>1256.01</ele>
        <time>2013-12-08T12:28:58Z</time>
      </trkpt>
      <trkpt lat="43.80783" lon="7.04432">
        <ele>1248.96</ele>
        <time>2013-12-08T12:29:22Z</time>
      </trkpt>
      <trkpt lat="43.80796" lon="7.04414">
        <ele>1237.16</ele>
        <time>2013-12-08T12:30:56Z</time>
      </trkpt>
      <trkpt lat="43.80812" lon="7.04426">
        <ele>1219.63</ele>
        <time>2013-12-08T12:32:05Z</time>
      </trkpt>
      <trkpt lat="43.8083" lon="7.04425">
        <ele>1209.75</ele>
        <time>2013-12-08T12:32:40Z</time>
      </trkpt>
      <trkpt lat="43.80848" lon="7.0443">
        <ele>1203.05</ele>
        <time>2013-12-08T12:33:19Z</time>
      </trkpt>
      <trkpt lat="43.80863" lon="7.04444">
        <ele>1196.75</ele>
        <time>2013-12-08T12:33:52Z</time>
      </trkpt>
      <trkpt lat="43.80881" lon="7.04444">
        <ele>1184.19</ele>
        <time>2013-12-08T12:34:18Z</time>
      </trkpt>
      <trkpt lat="43.80897" lon="7.04429">
        <ele>1175.89</ele>
        <time>2013-12-08T12:35:01Z</time>
      </trkpt>
      <trkpt lat="43.80905" lon="7.04407">
        <ele>1173.72</ele>
        <time>2013-12-08T12:35:26Z</time>
      </trkpt>
      <trkpt lat="43.80898" lon="7.04383">
        <ele>1178.74</ele>
        <time>2013-12-08T12:35:58Z</time>
      </trkpt>
      <trkpt lat="43.80903" lon="7.04358">
        <ele>1180.64</ele>
        <time>2013-12-08T12:36:19Z</time>
      </trkpt>
      <trkpt lat="43.8091" lon="7.04334">
        <ele>1180.43</ele>
        <time>2013-12-08T12:36:39Z</time>
      </trkpt>
      <trkpt lat="43.8091" lon="7.04309">
        <ele>1182.76</ele>
        <time>2013-12-08T12:36:57Z</time>
      </trkpt>
      <trkpt lat="43.80921" lon="7.04289">
        <ele>1180.39</ele>
        <time>2013-12-08T12:37:16Z</time>
      </trkpt>
      <trkpt lat="43.80936" lon="7.04274">
        <ele>1179.69</ele>
        <time>2013-12-08T12:37:42Z</time>
      </trkpt>
      <trkpt lat="43.80937" lon="7.04248">
        <ele>1184.97</ele>
        <time>2013-12-08T12:38:03Z</time>
      </trkpt>
      <trkpt lat="43.80954" lon="7.04241">
        <ele>1178.06</ele>
        <time>2013-12-08T12:38:36Z</time>
      </trkpt>
      <trkpt lat="43.8097" lon="7.04229">
        <ele>1170.14</ele>
        <time>2013-12-08T12:38:59Z</time>
      </trkpt>
      <trkpt lat="43.80985" lon="7.04216">
        <ele>1163.59</ele>
        <time>2013-12-08T12:39:23Z</time>
      </trkpt>
      <trkpt lat="43.81" lon="7.042">
        <ele>1158.54</ele>
        <time>2013-12-08T12:39:42Z</time>
      </trkpt>
      <trkpt lat="43.81013" lon="7.04182">
        <ele>1157.22</ele>
        <time>2013-12-08T12:39:59Z</time>
      </trkpt>
      <trkpt lat="43.81027" lon="7.04165">
        <ele>1155.85</ele>
        <time>2013-12-08T12:40:23Z</time>
      </trkpt>
      <trkpt lat="43.8104" lon="7.04145">
        <ele>1153.39</ele>
        <time>2013-12-08T12:40:44Z</time>
      </trkpt>
      <trkpt lat="43.81053" lon="7.04127">
        <ele>1154.57</ele>
        <time>2013-12-08T12:41:09Z</time>
      </trkpt>
      <trkpt lat="43.81068" lon="7.04114">
        <ele>1149.63</ele>
        <time>2013-12-08T12:41:34Z</time>
      </trkpt>
      <trkpt lat="43.81083" lon="7.04098">
        <ele>1145.68</ele>
        <time>2013-12-08T12:41:53Z</time>
      </trkpt>
      <trkpt lat="43.81096" lon="7.04081">
        <ele>1147.32</ele>
        <time>2013-12-08T12:42:16Z</time>
      </trkpt>
      <trkpt lat="43.81108" lon="7.04061">
        <ele>1147.09</ele>
        <time>2013-12-08T12:42:46Z</time>
      </trkpt>
      <trkpt lat="43.81125" lon="7.04051">
        <ele>1142.99</ele>
        <time>2013-12-08T12:43:08Z</time>
      </trkpt>
      <trkpt lat="43.81143" lon="7.04043">
        <ele>1138.67</ele>
        <time>2013-12-08T12:43:29Z</time>
      </trkpt>
      <trkpt lat="43.8116" lon="7.04035">
        <ele>1135.42</ele>
        <time>2013-12-08T12:43:49Z</time>
      </trkpt>
      <trkpt lat="43.81176" lon="7.04024">
        <ele>1131.49</ele>
        <time>2013-12-08T12:44:06Z</time>
      </trkpt>
      <trkpt lat="43.81194" lon="7.04015">
        <ele>1123.39</ele>
        <time>2013-12-08T12:44:31Z</time>
      </trkpt>
      <trkpt lat="43.81213" lon="7.04007">
        <ele>1119.71</ele>
        <time>2013-12-08T12:44:53Z</time>
      </trkpt>
      <trkpt lat="43.8123" lon="7.04017">
        <ele>1115.15</ele>
        <time>2013-12-08T12:45:39Z</time>
      </trkpt>
      <trkpt lat="43.8122" lon="7.04038">
        <ele>1111.77</ele>
        <time>2013-12-08T12:46:26Z</time>
      </trkpt>
      <trkpt lat="43.81214" lon="7.04062">
        <ele>1106.85</ele>
        <time>2013-12-08T12:47:29Z</time>
      </trkpt>
      <trkpt lat="43.81206" lon="7.04086">
        <ele>1103.14</ele>
        <time>2013-12-08T12:48:02Z</time>
      </trkpt>
      <trkpt lat="43.81195" lon="7.04105">
        <ele>1099.23</ele>
        <time>2013-12-08T12:48:26Z</time>
      </trkpt>
      <trkpt lat="43.81199" lon="7.0413">
        <ele>1096.37</ele>
        <time>2013-12-08T12:49:05Z</time>
      </trkpt>
      <trkpt lat="43.81217" lon="7.04132">
        <ele>1097.81</ele>
        <time>2013-12-08T12:52:01Z</time>
      </trkpt>
      <trkpt lat="43.81233" lon="7.04143">
        <ele>1099.37</ele>
        <time>2013-12-08T12:52:54Z</time>
      </trkpt>
      <trkpt lat="43.81251" lon="7.0415">
        <ele>1101.86</ele>
        <time>2013-12-08T12:54:03Z</time>
      </trkpt>
      <trkpt lat="43.81269" lon="7.04149">
        <ele>1109.28</ele>
        <time>2013-12-08T12:54:57Z</time>
      </trkpt>
      <trkpt lat="43.81288" lon="7.04149">
        <ele>1116.35</ele>
        <time>2013-12-08T12:55:49Z</time>
      </trkpt>
      <trkpt lat="43.813" lon="7.04168">
        <ele>1120.67</ele>
        <time>2013-12-08T12:56:27Z</time>
      </trkpt>
      <trkpt lat="43.81312" lon="7.04186">
        <ele>1123.54</ele>
        <time>2013-12-08T12:56:53Z</time>
      </trkpt>
      <trkpt lat="43.81329" lon="7.04175">
        <ele>1126.93</ele>
        <time>2013-12-08T12:57:51Z</time>
      </trkpt>
      <trkpt lat="43.81331" lon="7.04167">
        <ele>1127.6</ele>
        <time>2013-12-08T12:58:50Z</time>
      </trkpt>
      <trkpt lat="43.81349" lon="7.04161">
        <ele>1134.99</ele>
        <time>2013-12-08T13:01:06Z</time>
      </trkpt>
      <trkpt lat="43.81364" lon="7.04146">
        <ele>1142.24</ele>
        <time>2013-12-08T13:01:36Z</time>
      </trkpt>
      <trkpt lat="43.81382" lon="7.04148">
        <ele>1155.38</ele>
        <time>2013-12-08T13:02:01Z</time>
      </trkpt>
      <trkpt lat="43.81398" lon="7.04135">
        <ele>1163.79</ele>
        <time>2013-12-08T13:02:41Z</time>
      </trkpt>
      <trkpt lat="43.81416" lon="7.0414">
        <ele>1173.67</ele>
        <time>2013-12-08T13:03:29Z</time>
      </trkpt>
      <trkpt lat="43.81434" lon="7.04138">
        <ele>1180.67</ele>
        <time>2013-12-08T13:04:14Z</time>
      </trkpt>
      <trkpt lat="43.81449" lon="7.04126">
        <ele>1187.21</ele>
        <time>2013-12-08T13:04:57Z</time>
      </trkpt>
      <trkpt lat="43.81467" lon="7.04122">
        <ele>1198.26</ele>
        <time>2013-12-08T13:05:29Z</time>
      </trkpt>
      <trkpt lat="43.81485" lon="7.04113">
        <ele>1202.46</ele>
        <time>2013-12-08T13:06:07Z</time>
      </trkpt>
      <trkpt lat="43.81502" lon="7.04121">
        <ele>1204.72</ele>
        <time>2013-12-08T13:07:11Z</time>
      </trkpt>
      <trkpt lat="43.81502" lon="7.04146">
        <ele>1205.57</ele>
        <time>2013-12-08T13:07:31Z</time>
      </trkpt>
      <trkpt lat="43.815" lon="7.04171">
        <ele>1206.17</ele>
        <time>2013-12-08T13:07:52Z</time>
      </trkpt>
      <trkpt lat="43.81506" lon="7.04196">
        <ele>1208.08</ele>
        <time>2013-12-08T13:08:09Z</time>
      </trkpt>
      <trkpt lat="43.81516" lon="7.04217">
        <ele>1211.12</ele>
        <time>2013-12-08T13:08:23Z</time>
      </trkpt>
      <trkpt lat="43.81533" lon="7.04222">
        <ele>1215.22</ele>
        <time>2013-12-08T13:08:38Z</time>
      </trkpt>
      <trkpt lat="43.81552" lon="7.04218">
        <ele>1219.25</ele>
        <time>2013-12-08T13:08:52Z</time>
      </trkpt>
      <trkpt lat="43.8157" lon="7.04211">
        <ele>1221.71</ele>
        <time>2013-12-08T13:09:11Z</time>
      </trkpt>
      <trkpt lat="43.81585" lon="7.04198">
        <ele>1224.16</ele>
        <time>2013-12-08T13:11:39Z</time>
      </trkpt>
      <trkpt lat="43.81587" lon="7.04172">
        <ele>1224.61</ele>
        <time>2013-12-08T13:11:56Z</time>
      </trkpt>
      <trkpt lat="43.81598" lon="7.04152">
        <ele>1226.04</ele>
        <time>2013-12-08T13:12:12Z</time>
      </trkpt>
      <trkpt lat="43.81609" lon="7.04133">
        <ele>1227.25</ele>
        <time>2013-12-08T13:12:28Z</time>
      </trkpt>
      <trkpt lat="43.81621" lon="7.04114">
        <ele>1227.59</ele>
        <time>2013-12-08T13:12:45Z</time>
      </trkpt>
      <trkpt lat="43.8163" lon="7.04091">
        <ele>1227</ele>
        <time>2013-12-08T13:13:03Z</time>
      </trkpt>
      <trkpt lat="43.8164" lon="7.04069">
        <ele>1226.68</ele>
        <time>2013-12-08T13:13:28Z</time>
      </trkpt>
      <trkpt lat="43.81657" lon="7.04058">
        <ele>1228.14</ele>
        <time>2013-12-08T13:13:40Z</time>
      </trkpt>
      <trkpt lat="43.81668" lon="7.04038">
        <ele>1228.46</ele>
        <time>2013-12-08T13:13:56Z</time>
      </trkpt>
      <trkpt lat="43.81665" lon="7.04013">
        <ele>1225.76</ele>
        <time>2013-12-08T13:14:13Z</time>
      </trkpt>
      <trkpt lat="43.81668" lon="7.03987">
        <ele>1224.17</ele>
        <time>2013-12-08T13:14:31Z</time>
      </trkpt>
      <trkpt lat="43.81672" lon="7.03963">
        <ele>1223.23</ele>
        <time>2013-12-08T13:14:49Z</time>
      </trkpt>
      <trkpt lat="43.81681" lon="7.0394">
        <ele>1223.8</ele>
        <time>2013-12-08T13:15:10Z</time>
      </trkpt>
      <trkpt lat="43.8169" lon="7.03917">
        <ele>1224.7</ele>
        <time>2013-12-08T13:15:29Z</time>
      </trkpt>
      <trkpt lat="43.81702" lon="7.03898">
        <ele>1230.73</ele>
        <time>2013-12-08T13:15:50Z</time>
      </trkpt>
      <trkpt lat="43.81699" lon="7.03874">
        <ele>1232.21</ele>
        <time>2013-12-08T13:16:10Z</time>
      </trkpt>
      <trkpt lat="43.81698" lon="7.03848">
        <ele>1233.73</ele>
        <time>2013-12-08T13:16:37Z</time>
      </trkpt>
      <trkpt lat="43.81701" lon="7.03823">
        <ele>1235.25</ele>
        <time>2013-12-08T13:17:04Z</time>
      </trkpt>
      <trkpt lat="43.8169" lon="7.03802">
        <ele>1230.86</ele>
        <time>2013-12-08T13:17:38Z</time>
      </trkpt>
      <trkpt lat="43.8169" lon="7.03777">
        <ele>1230.43</ele>
        <time>2013-12-08T13:17:57Z</time>
      </trkpt>
      <trkpt lat="43.81687" lon="7.03752">
        <ele>1228.79</ele>
        <time>2013-12-08T13:18:25Z</time>
      </trkpt>
      <trkpt lat="43.8168" lon="7.03729">
        <ele>1225.97</ele>
        <time>2013-12-08T13:18:46Z</time>
      </trkpt>
      <trkpt lat="43.81686" lon="7.03752">
        <ele>1228.74</ele>
        <time>2013-12-08T13:19:33Z</time>
      </trkpt>
      <trkpt lat="43.81689" lon="7.03777">
        <ele>1230.36</ele>
        <time>2013-12-08T13:19:53Z</time>
      </trkpt>
      <trkpt lat="43.81689" lon="7.03804">
        <ele>1230.26</ele>
        <time>2013-12-08T13:20:10Z</time>
      </trkpt>
      <trkpt lat="43.81694" lon="7.03828">
        <ele>1233.57</ele>
        <time>2013-12-08T13:20:29Z</time>
      </trkpt>
      <trkpt lat="43.81696" lon="7.03853">
        <ele>1232.95</ele>
        <time>2013-12-08T13:20:49Z</time>
      </trkpt>
      <trkpt lat="43.81699" lon="7.03879">
        <ele>1231.48</ele>
        <time>2013-12-08T13:21:12Z</time>
      </trkpt>
      <trkpt lat="43.817" lon="7.03905">
        <ele>1229.24</ele>
        <time>2013-12-08T13:21:32Z</time>
      </trkpt>
      <trkpt lat="43.81685" lon="7.0392">
        <ele>1223.5</ele>
        <time>2013-12-08T13:21:54Z</time>
      </trkpt>
      <trkpt lat="43.81674" lon="7.0394">
        <ele>1221.92</ele>
        <time>2013-12-08T13:22:10Z</time>
      </trkpt>
      <trkpt lat="43.81665" lon="7.03961">
        <ele>1221.04</ele>
        <time>2013-12-08T13:22:31Z</time>
      </trkpt>
      <trkpt lat="43.81662" lon="7.03986">
        <ele>1223.16</ele>
        <time>2013-12-08T13:22:50Z</time>
      </trkpt>
      <trkpt lat="43.81658" lon="7.04012">
        <ele>1224.94</ele>
        <time>2013-12-08T13:23:09Z</time>
      </trkpt>
      <trkpt lat="43.81661" lon="7.04038">
        <ele>1227.08</ele>
        <time>2013-12-08T13:23:28Z</time>
      </trkpt>
      <trkpt lat="43.81656" lon="7.04062">
        <ele>1228.17</ele>
        <time>2013-12-08T13:23:44Z</time>
      </trkpt>
      <trkpt lat="43.81638" lon="7.04074">
        <ele>1226.62</ele>
        <time>2013-12-08T13:24:01Z</time>
      </trkpt>
      <trkpt lat="43.81623" lon="7.0409">
        <ele>1226.25</ele>
        <time>2013-12-08T13:24:17Z</time>
      </trkpt>
      <trkpt lat="43.81611" lon="7.0411">
        <ele>1225.87</ele>
        <time>2013-12-08T13:24:33Z</time>
      </trkpt>
      <trkpt lat="43.81598" lon="7.0413">
        <ele>1225.15</ele>
        <time>2013-12-08T13:24:49Z</time>
      </trkpt>
      <trkpt lat="43.8159" lon="7.04153">
        <ele>1224.76</ele>
        <time>2013-12-08T13:25:06Z</time>
      </trkpt>
      <trkpt lat="43.81579" lon="7.04173">
        <ele>1223.44</ele>
        <time>2013-12-08T13:25:19Z</time>
      </trkpt>
      <trkpt lat="43.81582" lon="7.04198">
        <ele>1223.71</ele>
        <time>2013-12-08T13:25:34Z</time>
      </trkpt>
      <trkpt lat="43.81572" lon="7.04221">
        <ele>1221.78</ele>
        <time>2013-12-08T13:25:54Z</time>
      </trkpt>
      <trkpt lat="43.8156" lon="7.0424">
        <ele>1219.85</ele>
        <time>2013-12-08T13:26:15Z</time>
      </trkpt>
      <trkpt lat="43.81547" lon="7.04257">
        <ele>1216.63</ele>
        <time>2013-12-08T13:26:28Z</time>
      </trkpt>
      <trkpt lat="43.81551" lon="7.04282">
        <ele>1215.85</ele>
        <time>2013-12-08T13:26:52Z</time>
      </trkpt>
      <trkpt lat="43.81561" lon="7.04304">
        <ele>1215.62</ele>
        <time>2013-12-08T13:27:13Z</time>
      </trkpt>
      <trkpt lat="43.81572" lon="7.04325">
        <ele>1216.5</ele>
        <time>2013-12-08T13:27:32Z</time>
      </trkpt>
      <trkpt lat="43.81584" lon="7.04346">
        <ele>1217.21</ele>
        <time>2013-12-08T13:27:48Z</time>
      </trkpt>
      <trkpt lat="43.81593" lon="7.04368">
        <ele>1217.2</ele>
        <time>2013-12-08T13:28:03Z</time>
      </trkpt>
      <trkpt lat="43.81598" lon="7.04394">
        <ele>1216.92</ele>
        <time>2013-12-08T13:28:20Z</time>
      </trkpt>
      <trkpt lat="43.81599" lon="7.0442">
        <ele>1216.18</ele>
        <time>2013-12-08T13:28:41Z</time>
      </trkpt>
      <trkpt lat="43.81619" lon="7.04461">
        <ele>1218.14</ele>
        <time>2013-12-08T13:30:57Z</time>
      </trkpt>
      <trkpt lat="43.81612" lon="7.0449">
        <ele>1217.04</ele>
        <time>2013-12-08T13:31:27Z</time>
      </trkpt>
      <trkpt lat="43.81625" lon="7.04507">
        <ele>1217.9</ele>
        <time>2013-12-08T13:31:52Z</time>
      </trkpt>
      <trkpt lat="43.81643" lon="7.04515">
        <ele>1219.14</ele>
        <time>2013-12-08T13:32:11Z</time>
      </trkpt>
      <trkpt lat="43.81655" lon="7.04534">
        <ele>1219.57</ele>
        <time>2013-12-08T13:32:27Z</time>
      </trkpt>
      <trkpt lat="43.81663" lon="7.04556">
        <ele>1219.88</ele>
        <time>2013-12-08T13:32:51Z</time>
      </trkpt>
      <trkpt lat="43.81663" lon="7.04582">
        <ele>1219.87</ele>
        <time>2013-12-08T13:33:08Z</time>
      </trkpt>
      <trkpt lat="43.81659" lon="7.04607">
        <ele>1219.73</ele>
        <time>2013-12-08T13:33:28Z</time>
      </trkpt>
      <trkpt lat="43.81654" lon="7.04632">
        <ele>1219.95</ele>
        <time>2013-12-08T13:33:48Z</time>
      </trkpt>
      <trkpt lat="43.81637" lon="7.04644">
        <ele>1218.89</ele>
        <time>2013-12-08T13:34:06Z</time>
      </trkpt>
      <trkpt lat="43.8162" lon="7.0465">
        <ele>1216.37</ele>
        <time>2013-12-08T13:34:20Z</time>
      </trkpt>
      <trkpt lat="43.81602" lon="7.04659">
        <ele>1213.7</ele>
        <time>2013-12-08T13:34:40Z</time>
      </trkpt>
      <trkpt lat="43.81588" lon="7.04676">
        <ele>1210.37</ele>
        <time>2013-12-08T13:34:58Z</time>
      </trkpt>
      <trkpt lat="43.81579" lon="7.04698">
        <ele>1209.21</ele>
        <time>2013-12-08T13:35:15Z</time>
      </trkpt>
      <trkpt lat="43.81578" lon="7.04724">
        <ele>1209.76</ele>
        <time>2013-12-08T13:35:30Z</time>
      </trkpt>
      <trkpt lat="43.81583" lon="7.04749">
        <ele>1212</ele>
        <time>2013-12-08T13:35:46Z</time>
      </trkpt>
      <trkpt lat="43.81582" lon="7.04775">
        <ele>1213.33</ele>
        <time>2013-12-08T13:36:03Z</time>
      </trkpt>
      <trkpt lat="43.81581" lon="7.04801">
        <ele>1214.24</ele>
        <time>2013-12-08T13:36:18Z</time>
      </trkpt>
      <trkpt lat="43.81581" lon="7.04827">
        <ele>1213.73</ele>
        <time>2013-12-08T13:36:35Z</time>
      </trkpt>
      <trkpt lat="43.81586" lon="7.04851">
        <ele>1213.53</ele>
        <time>2013-12-08T13:36:57Z</time>
      </trkpt>
      <trkpt lat="43.81592" lon="7.04876">
        <ele>1214.14</ele>
        <time>2013-12-08T13:37:14Z</time>
      </trkpt>
      <trkpt lat="43.81594" lon="7.04901">
        <ele>1213.36</ele>
        <time>2013-12-08T13:37:29Z</time>
      </trkpt>
      <trkpt lat="43.81595" lon="7.04926">
        <ele>1212.52</ele>
        <time>2013-12-08T13:37:43Z</time>
      </trkpt>
      <trkpt lat="43.81602" lon="7.04951">
        <ele>1213.23</ele>
        <time>2013-12-08T13:38:01Z</time>
      </trkpt>
      <trkpt lat="43.81605" lon="7.04977">
        <ele>1211.91</ele>
        <time>2013-12-08T13:38:20Z</time>
      </trkpt>
      <trkpt lat="43.81607" lon="7.05003">
        <ele>1209.38</ele>
        <time>2013-12-08T13:38:38Z</time>
      </trkpt>
      <trkpt lat="43.81606" lon="7.05028">
        <ele>1207.51</ele>
        <time>2013-12-08T13:38:55Z</time>
      </trkpt>
      <trkpt lat="43.8161" lon="7.05053">
        <ele>1204.79</ele>
        <time>2013-12-08T13:39:10Z</time>
      </trkpt>
      <trkpt lat="43.81616" lon="7.05078">
        <ele>1203.45</ele>
        <time>2013-12-08T13:39:25Z</time>
      </trkpt>
      <trkpt lat="43.81624" lon="7.051">
        <ele>1202.5</ele>
        <time>2013-12-08T13:39:40Z</time>
      </trkpt>
      <trkpt lat="43.81633" lon="7.05122">
        <ele>1201.38</ele>
        <time>2013-12-08T13:39:56Z</time>
      </trkpt>
      <trkpt lat="43.8164" lon="7.05147">
        <ele>1199.24</ele>
        <time>2013-12-08T13:40:11Z</time>
      </trkpt>
      <trkpt lat="43.81651" lon="7.05169">
        <ele>1198.24</ele>
        <time>2013-12-08T13:40:28Z</time>
      </trkpt>
      <trkpt lat="43.81662" lon="7.05189">
        <ele>1198.6</ele>
        <time>2013-12-08T13:40:44Z</time>
      </trkpt>
      <trkpt lat="43.81671" lon="7.05212">
        <ele>1197.53</ele>
        <time>2013-12-08T13:41:03Z</time>
      </trkpt>
      <trkpt lat="43.8168" lon="7.05235">
        <ele>1195.61</ele>
        <time>2013-12-08T13:41:19Z</time>
      </trkpt>
      <trkpt lat="43.81693" lon="7.05254">
        <ele>1194.61</ele>
        <time>2013-12-08T13:41:35Z</time>
      </trkpt>
      <trkpt lat="43.81693" lon="7.05279">
        <ele>1192.74</ele>
        <time>2013-12-08T13:41:54Z</time>
      </trkpt>
      <trkpt lat="43.81687" lon="7.05303">
        <ele>1189.11</ele>
        <time>2013-12-08T13:42:12Z</time>
      </trkpt>
      <trkpt lat="43.81679" lon="7.05325">
        <ele>1187.03</ele>
        <time>2013-12-08T13:42:32Z</time>
      </trkpt>
      <trkpt lat="43.81676" lon="7.0535">
        <ele>1184.52</ele>
        <time>2013-12-08T13:42:48Z</time>
      </trkpt>
      <trkpt lat="43.81659" lon="7.05358">
        <ele>1182.83</ele>
        <time>2013-12-08T13:43:06Z</time>
      </trkpt>
      <trkpt lat="43.81663" lon="7.05382">
        <ele>1180.61</ele>
        <time>2013-12-08T13:43:23Z</time>
      </trkpt>
      <trkpt lat="43.81666" lon="7.05407">
        <ele>1179.29</ele>
        <time>2013-12-08T13:43:40Z</time>
      </trkpt>
      <trkpt lat="43.81667" lon="7.05432">
        <ele>1177.88</ele>
        <time>2013-12-08T13:43:55Z</time>
      </trkpt>
      <trkpt lat="43.81678" lon="7.05452">
        <ele>1176.44</ele>
        <time>2013-12-08T13:44:11Z</time>
      </trkpt>
      <trkpt lat="43.81697" lon="7.0545">
        <ele>1176.59</ele>
        <time>2013-12-08T13:44:28Z</time>
      </trkpt>
      <trkpt lat="43.81712" lon="7.05434">
        <ele>1177.74</ele>
        <time>2013-12-08T13:44:42Z</time>
      </trkpt>
      <trkpt lat="43.8173" lon="7.05427">
        <ele>1178.07</ele>
        <time>2013-12-08T13:44:56Z</time>
      </trkpt>
      <trkpt lat="43.81748" lon="7.05431">
        <ele>1177.5</ele>
        <time>2013-12-08T13:45:13Z</time>
      </trkpt>
      <trkpt lat="43.81767" lon="7.05436">
        <ele>1177.29</ele>
        <time>2013-12-08T13:45:28Z</time>
      </trkpt>
      <trkpt lat="43.81782" lon="7.05451">
        <ele>1175.19</ele>
        <time>2013-12-08T13:45:47Z</time>
      </trkpt>
      <trkpt lat="43.81799" lon="7.0546">
        <ele>1167.16</ele>
        <time>2013-12-08T13:46:00Z</time>
      </trkpt>
      <trkpt lat="43.81817" lon="7.05463">
        <ele>1162.98</ele>
        <time>2013-12-08T13:46:18Z</time>
      </trkpt>
      <trkpt lat="43.81827" lon="7.05485">
        <ele>1159.77</ele>
        <time>2013-12-08T13:46:37Z</time>
      </trkpt>
      <trkpt lat="43.81841" lon="7.05502">
        <ele>1158.94</ele>
        <time>2013-12-08T13:46:52Z</time>
      </trkpt>
      <trkpt lat="43.81857" lon="7.05513">
        <ele>1158.55</ele>
        <time>2013-12-08T13:47:07Z</time>
      </trkpt>
      <trkpt lat="43.81868" lon="7.05534">
        <ele>1157.51</ele>
        <time>2013-12-08T13:47:21Z</time>
      </trkpt>
      <trkpt lat="43.81881" lon="7.05551">
        <ele>1155.85</ele>
        <time>2013-12-08T13:47:38Z</time>
      </trkpt>
      <trkpt lat="43.81895" lon="7.05567">
        <ele>1153.6</ele>
        <time>2013-12-08T13:47:52Z</time>
      </trkpt>
      <trkpt lat="43.8191" lon="7.05581">
        <ele>1150.3</ele>
        <time>2013-12-08T13:48:10Z</time>
      </trkpt>
      <trkpt lat="43.81926" lon="7.05594">
        <ele>1147.89</ele>
        <time>2013-12-08T13:48:27Z</time>
      </trkpt>
      <trkpt lat="43.8194" lon="7.05612">
        <ele>1146.59</ele>
        <time>2013-12-08T13:48:43Z</time>
      </trkpt>
      <trkpt lat="43.81951" lon="7.05633">
        <ele>1144.82</ele>
        <time>2013-12-08T13:48:57Z</time>
      </trkpt>
      <trkpt lat="43.81967" lon="7.05647">
        <ele>1145.26</ele>
        <time>2013-12-08T13:49:13Z</time>
      </trkpt>
      <trkpt lat="43.81978" lon="7.05668">
        <ele>1144.95</ele>
        <time>2013-12-08T13:49:30Z</time>
      </trkpt>
      <trkpt lat="43.81991" lon="7.05686">
        <ele>1145.32</ele>
        <time>2013-12-08T13:49:45Z</time>
      </trkpt>
      <trkpt lat="43.82003" lon="7.05707">
        <ele>1145.07</ele>
        <time>2013-12-08T13:50:02Z</time>
      </trkpt>
      <trkpt lat="43.82005" lon="7.05732">
        <ele>1142.66</ele>
        <time>2013-12-08T13:50:22Z</time>
      </trkpt>
      <trkpt lat="43.81999" lon="7.05757">
        <ele>1139.97</ele>
        <time>2013-12-08T13:50:34Z</time>
      </trkpt>
      <trkpt lat="43.81998" lon="7.05783">
        <ele>1139.84</ele>
        <time>2013-12-08T13:50:52Z</time>
      </trkpt>
      <trkpt lat="43.81989" lon="7.05805">
        <ele>1139.2</ele>
        <time>2013-12-08T13:51:08Z</time>
      </trkpt>
      <trkpt lat="43.8198" lon="7.05828">
        <ele>1137.75</ele>
        <time>2013-12-08T13:51:24Z</time>
      </trkpt>
      <trkpt lat="43.81971" lon="7.0585">
        <ele>1136.17</ele>
        <time>2013-12-08T13:51:38Z</time>
      </trkpt>
      <trkpt lat="43.81963" lon="7.05874">
        <ele>1133.76</ele>
        <time>2013-12-08T13:51:54Z</time>
      </trkpt>
      <trkpt lat="43.81958" lon="7.05898">
        <ele>1131.57</ele>
        <time>2013-12-08T13:52:09Z</time>
      </trkpt>
      <trkpt lat="43.81952" lon="7.05923">
        <ele>1128.89</ele>
        <time>2013-12-08T13:52:25Z</time>
      </trkpt>
      <trkpt lat="43.81953" lon="7.05948">
        <ele>1127.62</ele>
        <time>2013-12-08T13:52:40Z</time>
      </trkpt>
      <trkpt lat="43.81955" lon="7.05974">
        <ele>1127.77</ele>
        <time>2013-12-08T13:52:57Z</time>
      </trkpt>
      <trkpt lat="43.81962" lon="7.05998">
        <ele>1128.9</ele>
        <time>2013-12-08T13:53:15Z</time>
      </trkpt>
      <trkpt lat="43.81965" lon="7.06022">
        <ele>1129.31</ele>
        <time>2013-12-08T13:53:29Z</time>
      </trkpt>
      <trkpt lat="43.81962" lon="7.06047">
        <ele>1127.06</ele>
        <time>2013-12-08T13:53:43Z</time>
      </trkpt>
      <trkpt lat="43.81961" lon="7.06073">
        <ele>1125.44</ele>
        <time>2013-12-08T13:54:02Z</time>
      </trkpt>
      <trkpt lat="43.8196" lon="7.061">
        <ele>1123.9</ele>
        <time>2013-12-08T13:54:16Z</time>
      </trkpt>
      <trkpt lat="43.81962" lon="7.06125">
        <ele>1122.89</ele>
        <time>2013-12-08T13:54:36Z</time>
      </trkpt>
      <trkpt lat="43.8196" lon="7.06151">
        <ele>1120.36</ele>
        <time>2013-12-08T13:54:50Z</time>
      </trkpt>
      <trkpt lat="43.8195" lon="7.06173">
        <ele>1116.01</ele>
        <time>2013-12-08T13:55:07Z</time>
      </trkpt>
      <trkpt lat="43.81954" lon="7.06198">
        <ele>1115.09</ele>
        <time>2013-12-08T13:55:22Z</time>
      </trkpt>
      <trkpt lat="43.81947" lon="7.06221">
        <ele>1110.7</ele>
        <time>2013-12-08T13:55:47Z</time>
      </trkpt>
      <trkpt lat="43.81944" lon="7.06247">
        <ele>1107.22</ele>
        <time>2013-12-08T13:56:18Z</time>
      </trkpt>
      <trkpt lat="43.81943" lon="7.06272">
        <ele>1104.99</ele>
        <time>2013-12-08T13:56:34Z</time>
      </trkpt>
      <trkpt lat="43.81948" lon="7.06296">
        <ele>1103.82</ele>
        <time>2013-12-08T13:56:50Z</time>
      </trkpt>
      <trkpt lat="43.81948" lon="7.06322">
        <ele>1101.55</ele>
        <time>2013-12-08T13:57:04Z</time>
      </trkpt>
      <trkpt lat="43.8195" lon="7.06347">
        <ele>1101.05</ele>
        <time>2013-12-08T13:57:22Z</time>
      </trkpt>
      <trkpt lat="43.81954" lon="7.06372">
        <ele>1100.26</ele>
        <time>2013-12-08T13:57:43Z</time>
      </trkpt>
      <trkpt lat="43.81958" lon="7.06396">
        <ele>1098.07</ele>
        <time>2013-12-08T13:58:03Z</time>
      </trkpt>
      <trkpt lat="43.81964" lon="7.0642">
        <ele>1097.23</ele>
        <time>2013-12-08T13:58:25Z</time>
      </trkpt>
      <trkpt lat="43.81958" lon="7.06445">
        <ele>1093.26</ele>
        <time>2013-12-08T13:58:40Z</time>
      </trkpt>
      <trkpt lat="43.81952" lon="7.06469">
        <ele>1087.82</ele>
        <time>2013-12-08T13:58:57Z</time>
      </trkpt>
      <trkpt lat="43.81947" lon="7.06493">
        <ele>1082.17</ele>
        <time>2013-12-08T13:59:15Z</time>
      </trkpt>
      <trkpt lat="43.81943" lon="7.06519">
        <ele>1078.81</ele>
        <time>2013-12-08T13:59:33Z</time>
      </trkpt>
      <trkpt lat="43.81937" lon="7.06543">
        <ele>1076.26</ele>
        <time>2013-12-08T13:59:49Z</time>
      </trkpt>
      <trkpt lat="43.81933" lon="7.06569">
        <ele>1074.08</ele>
        <time>2013-12-08T14:00:07Z</time>
      </trkpt>
      <trkpt lat="43.81927" lon="7.06593">
        <ele>1071.14</ele>
        <time>2013-12-08T14:00:25Z</time>
      </trkpt>
      <trkpt lat="43.81923" lon="7.06619">
        <ele>1067.57</ele>
        <time>2013-12-08T14:00:40Z</time>
      </trkpt>
      <trkpt lat="43.81917" lon="7.06644">
        <ele>1063.12</ele>
        <time>2013-12-08T14:00:58Z</time>
      </trkpt>
      <trkpt lat="43.81913" lon="7.06669">
        <ele>1061.39</ele>
        <time>2013-12-08T14:01:14Z</time>
      </trkpt>
      <trkpt lat="43.81908" lon="7.06694">
        <ele>1058.43</ele>
        <time>2013-12-08T14:01:29Z</time>
      </trkpt>
      <trkpt lat="43.81901" lon="7.06719">
        <ele>1053.84</ele>
        <time>2013-12-08T14:01:45Z</time>
      </trkpt>
      <trkpt lat="43.81898" lon="7.06743">
        <ele>1051.16</ele>
        <time>2013-12-08T14:02:04Z</time>
      </trkpt>
      <trkpt lat="43.81894" lon="7.06768">
        <ele>1046.98</ele>
        <time>2013-12-08T14:02:22Z</time>
      </trkpt>
      <trkpt lat="43.81887" lon="7.06792">
        <ele>1041.34</ele>
        <time>2013-12-08T14:02:43Z</time>
      </trkpt>
      <trkpt lat="43.81882" lon="7.06817">
        <ele>1036.8</ele>
        <time>2013-12-08T14:03:03Z</time>
      </trkpt>
      <trkpt lat="43.81878" lon="7.06841">
        <ele>1034.2</ele>
        <time>2013-12-08T14:03:20Z</time>
      </trkpt>
      <trkpt lat="43.81864" lon="7.06857">
        <ele>1027.95</ele>
        <time>2013-12-08T14:03:36Z</time>
      </trkpt>
      <trkpt lat="43.8185" lon="7.06876">
        <ele>1024.06</ele>
        <time>2013-12-08T14:03:52Z</time>
      </trkpt>
      <trkpt lat="43.81836" lon="7.06892">
        <ele>1017.09</ele>
        <time>2013-12-08T14:04:08Z</time>
      </trkpt>
      <trkpt lat="43.81825" lon="7.06913">
        <ele>1012.22</ele>
        <time>2013-12-08T14:04:27Z</time>
      </trkpt>
      <trkpt lat="43.81813" lon="7.06934">
        <ele>1005.08</ele>
        <time>2013-12-08T14:04:43Z</time>
      </trkpt>
      <trkpt lat="43.81801" lon="7.06953">
        <ele>1000.47</ele>
        <time>2013-12-08T14:04:57Z</time>
      </trkpt>
      <trkpt lat="43.81787" lon="7.06971">
        <ele>1000.11</ele>
        <time>2013-12-08T14:05:11Z</time>
      </trkpt>
      <trkpt lat="43.81775" lon="7.06992">
        <ele>1000.15</ele>
        <time>2013-12-08T14:05:26Z</time>
      </trkpt>
      <trkpt lat="43.81766" lon="7.07015">
        <ele>1000</ele>
        <time>2013-12-08T14:05:44Z</time>
      </trkpt>
      <trkpt lat="43.81756" lon="7.07036">
        <ele>1000</ele>
        <time>2013-12-08T14:05:59Z</time>
      </trkpt>
      <trkpt lat="43.81746" lon="7.07058">
        <ele>999.83</ele>
        <time>2013-12-08T14:06:19Z</time>
      </trkpt>
      <trkpt lat="43.81734" lon="7.07079">
        <ele>998.97</ele>
        <time>2013-12-08T14:06:37Z</time>
      </trkpt>
      <trkpt lat="43.81726" lon="7.07101">
        <ele>997.16</ele>
        <time>2013-12-08T14:06:52Z</time>
      </trkpt>
      <trkpt lat="43.81716" lon="7.07123">
        <ele>995.01</ele>
        <time>2013-12-08T14:07:08Z</time>
      </trkpt>
      <trkpt lat="43.81705" lon="7.07145">
        <ele>993.16</ele>
        <time>2013-12-08T14:07:25Z</time>
      </trkpt>
      <trkpt lat="43.81696" lon="7.07166">
        <ele>992.12</ele>
        <time>2013-12-08T14:07:41Z</time>
      </trkpt>
      <trkpt lat="43.81687" lon="7.07189">
        <ele>990.27</ele>
        <time>2013-12-08T14:07:56Z</time>
      </trkpt>
      <trkpt lat="43.81679" lon="7.07211">
        <ele>987.75</ele>
        <time>2013-12-08T14:08:13Z</time>
      </trkpt>
      <trkpt lat="43.81669" lon="7.07231">
        <ele>983.96</ele>
        <time>2013-12-08T14:08:29Z</time>
      </trkpt>
      <trkpt lat="43.8166" lon="7.07254">
        <ele>981.49</ele>
        <time>2013-12-08T14:08:44Z</time>
      </trkpt>
      <trkpt lat="43.81649" lon="7.07276">
        <ele>980.1</ele>
        <time>2013-12-08T14:09:00Z</time>
      </trkpt>
      <trkpt lat="43.81638" lon="7.07296">
        <ele>979.38</ele>
        <time>2013-12-08T14:09:16Z</time>
      </trkpt>
      <trkpt lat="43.81629" lon="7.07319">
        <ele>978.59</ele>
        <time>2013-12-08T14:09:30Z</time>
      </trkpt>
      <trkpt lat="43.81628" lon="7.07345">
        <ele>976.37</ele>
        <time>2013-12-08T14:09:50Z</time>
      </trkpt>
      <trkpt lat="43.81632" lon="7.07369">
        <ele>973.81</ele>
        <time>2013-12-08T14:10:08Z</time>
      </trkpt>
      <trkpt lat="43.81635" lon="7.07394">
        <ele>971.69</ele>
        <time>2013-12-08T14:10:23Z</time>
      </trkpt>
      <trkpt lat="43.8163" lon="7.07419">
        <ele>969.5</ele>
        <time>2013-12-08T14:10:38Z</time>
      </trkpt>
      <trkpt lat="43.81625" lon="7.07444">
        <ele>967.04</ele>
        <time>2013-12-08T14:10:51Z</time>
      </trkpt>
      <trkpt lat="43.81623" lon="7.07469">
        <ele>964.09</ele>
        <time>2013-12-08T14:11:04Z</time>
      </trkpt>
      <trkpt lat="43.81623" lon="7.07494">
        <ele>961.19</ele>
        <time>2013-12-08T14:11:20Z</time>
      </trkpt>
      <trkpt lat="43.81625" lon="7.07519">
        <ele>959.21</ele>
        <time>2013-12-08T14:11:38Z</time>
      </trkpt>
      <trkpt lat="43.81622" lon="7.07545">
        <ele>955.71</ele>
        <time>2013-12-08T14:11:53Z</time>
      </trkpt>
      <trkpt lat="43.81618" lon="7.07571">
        <ele>951.62</ele>
        <time>2013-12-08T14:12:09Z</time>
      </trkpt>
      <trkpt lat="43.81616" lon="7.07596">
        <ele>948.19</ele>
        <time>2013-12-08T14:12:24Z</time>
      </trkpt>
      <trkpt lat="43.81619" lon="7.07621">
        <ele>946.66</ele>
        <time>2013-12-08T14:12:44Z</time>
      </trkpt>
      <trkpt lat="43.81615" lon="7.07646">
        <ele>941.3</ele>
        <time>2013-12-08T14:12:58Z</time>
      </trkpt>
      <trkpt lat="43.8162" lon="7.07671">
        <ele>940.92</ele>
        <time>2013-12-08T14:13:17Z</time>
      </trkpt>
      <trkpt lat="43.81626" lon="7.07695">
        <ele>940.74</ele>
        <time>2013-12-08T14:13:34Z</time>
      </trkpt>
      <trkpt lat="43.81623" lon="7.07722">
        <ele>936.04</ele>
        <time>2013-12-08T14:13:50Z</time>
      </trkpt>
      <trkpt lat="43.81619" lon="7.07748">
        <ele>933.43</ele>
        <time>2013-12-08T14:14:07Z</time>
      </trkpt>
      <trkpt lat="43.81611" lon="7.0777">
        <ele>929.33</ele>
        <time>2013-12-08T14:14:22Z</time>
      </trkpt>
      <trkpt lat="43.81603" lon="7.07794">
        <ele>923.55</ele>
        <time>2013-12-08T14:14:38Z</time>
      </trkpt>
      <trkpt lat="43.81597" lon="7.07818">
        <ele>919.19</ele>
        <time>2013-12-08T14:14:55Z</time>
      </trkpt>
      <trkpt lat="43.8159" lon="7.07842">
        <ele>915.75</ele>
        <time>2013-12-08T14:15:12Z</time>
      </trkpt>
      <trkpt lat="43.81586" lon="7.07867">
        <ele>914.87</ele>
        <time>2013-12-08T14:15:30Z</time>
      </trkpt>
      <trkpt lat="43.81578" lon="7.0789">
        <ele>915.18</ele>
        <time>2013-12-08T14:15:46Z</time>
      </trkpt>
      <trkpt lat="43.81568" lon="7.07912">
        <ele>913.62</ele>
        <time>2013-12-08T14:16:09Z</time>
      </trkpt>
      <trkpt lat="43.81556" lon="7.0793">
        <ele>910.59</ele>
        <time>2013-12-08T14:16:30Z</time>
      </trkpt>
      <trkpt lat="43.81539" lon="7.07942">
        <ele>904.61</ele>
        <time>2013-12-08T14:16:55Z</time>
      </trkpt>
      <trkpt lat="43.81522" lon="7.07951">
        <ele>898.27</ele>
        <time>2013-12-08T14:17:13Z</time>
      </trkpt>
      <trkpt lat="43.81504" lon="7.07955">
        <ele>890.67</ele>
        <time>2013-12-08T14:17:30Z</time>
      </trkpt>
      <trkpt lat="43.81487" lon="7.07967">
        <ele>886.62</ele>
        <time>2013-12-08T14:17:49Z</time>
      </trkpt>
      <trkpt lat="43.81472" lon="7.07983">
        <ele>882.96</ele>
        <time>2013-12-08T14:18:06Z</time>
      </trkpt>
      <trkpt lat="43.8146" lon="7.08002">
        <ele>881.86</ele>
        <time>2013-12-08T14:18:24Z</time>
      </trkpt>
      <trkpt lat="43.81449" lon="7.08022">
        <ele>880.95</ele>
        <time>2013-12-08T14:18:41Z</time>
      </trkpt>
      <trkpt lat="43.8144" lon="7.08045">
        <ele>880.11</ele>
        <time>2013-12-08T14:19:02Z</time>
      </trkpt>
      <trkpt lat="43.81431" lon="7.08067">
        <ele>879.02</ele>
        <time>2013-12-08T14:19:21Z</time>
      </trkpt>
      <trkpt lat="43.81425" lon="7.08092">
        <ele>879.39</ele>
        <time>2013-12-08T14:19:42Z</time>
      </trkpt>
      <trkpt lat="43.81422" lon="7.08116">
        <ele>881.53</ele>
        <time>2013-12-08T14:19:59Z</time>
      </trkpt>
      <trkpt lat="43.81415" lon="7.08142">
        <ele>879.61</ele>
        <time>2013-12-08T14:20:17Z</time>
      </trkpt>
      <trkpt lat="43.81407" lon="7.08119">
        <ele>876.8</ele>
        <time>2013-12-08T14:20:47Z</time>
      </trkpt>
      <trkpt lat="43.81401" lon="7.08096">
        <ele>873</ele>
        <time>2013-12-08T14:21:03Z</time>
      </trkpt>
      <trkpt lat="43.81394" lon="7.08071">
        <ele>868.87</ele>
        <time>2013-12-08T14:21:19Z</time>
      </trkpt>
      <trkpt lat="43.81391" lon="7.08045">
        <ele>865.11</ele>
        <time>2013-12-08T14:21:35Z</time>
      </trkpt>
      <trkpt lat="43.81389" lon="7.0802">
        <ele>861.43</ele>
        <time>2013-12-08T14:21:59Z</time>
      </trkpt>
      <trkpt lat="43.81386" lon="7.07995">
        <ele>859.81</ele>
        <time>2013-12-08T14:22:17Z</time>
      </trkpt>
      <trkpt lat="43.81385" lon="7.07968">
        <ele>859.88</ele>
        <time>2013-12-08T14:22:34Z</time>
      </trkpt>
      <trkpt lat="43.81367" lon="7.07975">
        <ele>859.14</ele>
        <time>2013-12-08T14:23:15Z</time>
      </trkpt>
      <trkpt lat="43.8136" lon="7.07999">
        <ele>857.88</ele>
        <time>2013-12-08T14:23:36Z</time>
      </trkpt>
      <trkpt lat="43.81351" lon="7.08021">
        <ele>855.88</ele>
        <time>2013-12-08T14:23:52Z</time>
      </trkpt>
      <trkpt lat="43.81344" lon="7.07998">
        <ele>856.29</ele>
        <time>2013-12-08T14:24:25Z</time>
      </trkpt>
      <trkpt lat="43.81341" lon="7.07972">
        <ele>857.56</ele>
        <time>2013-12-08T14:24:40Z</time>
      </trkpt>
      <trkpt lat="43.81324" lon="7.07981">
        <ele>850.95</ele>
        <time>2013-12-08T14:25:20Z</time>
      </trkpt>
      <trkpt lat="43.81316" lon="7.08005">
        <ele>844.69</ele>
        <time>2013-12-08T14:25:39Z</time>
      </trkpt>
      <trkpt lat="43.81311" lon="7.08029">
        <ele>840.61</ele>
        <time>2013-12-08T14:25:56Z</time>
      </trkpt>
      <trkpt lat="43.81303" lon="7.08054">
        <ele>835.42</ele>
        <time>2013-12-08T14:26:13Z</time>
      </trkpt>
      <trkpt lat="43.81298" lon="7.08078">
        <ele>832.68</ele>
        <time>2013-12-08T14:26:31Z</time>
      </trkpt>
      <trkpt lat="43.8129" lon="7.081">
        <ele>829.05</ele>
        <time>2013-12-08T14:26:45Z</time>
      </trkpt>
      <trkpt lat="43.81286" lon="7.08124">
        <ele>826.76</ele>
        <time>2013-12-08T14:27:05Z</time>
      </trkpt>
      <trkpt lat="43.81281" lon="7.08149">
        <ele>824.77</ele>
        <time>2013-12-08T14:27:21Z</time>
      </trkpt>
      <trkpt lat="43.81277" lon="7.08174">
        <ele>823.62</ele>
        <time>2013-12-08T14:27:38Z</time>
      </trkpt>
      <trkpt lat="43.81273" lon="7.08199">
        <ele>820.81</ele>
        <time>2013-12-08T14:27:54Z</time>
      </trkpt>
      <trkpt lat="43.81267" lon="7.08223">
        <ele>817.48</ele>
        <time>2013-12-08T14:28:10Z</time>
      </trkpt>
      <trkpt lat="43.81259" lon="7.08245">
        <ele>812.32</ele>
        <time>2013-12-08T14:28:27Z</time>
      </trkpt>
      <trkpt lat="43.81251" lon="7.08221">
        <ele>810.5</ele>
        <time>2013-12-08T14:28:52Z</time>
      </trkpt>
      <trkpt lat="43.81244" lon="7.08197">
        <ele>810.68</ele>
        <time>2013-12-08T14:29:06Z</time>
      </trkpt>
      <trkpt lat="43.81236" lon="7.0822">
        <ele>809.12</ele>
        <time>2013-12-08T14:29:34Z</time>
      </trkpt>
      <trkpt lat="43.81232" lon="7.08246">
        <ele>807.05</ele>
        <time>2013-12-08T14:29:52Z</time>
      </trkpt>
      <trkpt lat="43.81227" lon="7.08271">
        <ele>804.72</ele>
        <time>2013-12-08T14:30:09Z</time>
      </trkpt>
      <trkpt lat="43.81222" lon="7.08296">
        <ele>802.67</ele>
        <time>2013-12-08T14:30:30Z</time>
      </trkpt>
      <trkpt lat="43.81217" lon="7.08321">
        <ele>800.91</ele>
        <time>2013-12-08T14:30:48Z</time>
      </trkpt>
      <trkpt lat="43.81199" lon="7.08318">
        <ele>801.08</ele>
        <time>2013-12-08T14:31:11Z</time>
      </trkpt>
      <trkpt lat="43.8119" lon="7.08341">
        <ele>799.96</ele>
        <time>2013-12-08T14:31:34Z</time>
      </trkpt>
      <trkpt lat="43.81193" lon="7.08368">
        <ele>797.97</ele>
        <time>2013-12-08T14:32:11Z</time>
      </trkpt>
      <trkpt lat="43.81188" lon="7.08392">
        <ele>797.63</ele>
        <time>2013-12-08T14:33:38Z</time>
      </trkpt>
      <trkpt lat="43.81183" lon="7.08417">
        <ele>796.62</ele>
        <time>2013-12-08T14:36:29Z</time>
      </trkpt>
      <trkpt lat="43.8117" lon="7.08436">
        <ele>796.55</ele>
        <time>2013-12-08T14:36:47Z</time>
      </trkpt>
      <trkpt lat="43.81164" lon="7.08461">
        <ele>795.79</ele>
        <time>2013-12-08T14:37:03Z</time>
      </trkpt>
      <trkpt lat="43.81159" lon="7.08485">
        <ele>795.19</ele>
        <time>2013-12-08T14:37:20Z</time>
      </trkpt>
      <trkpt lat="43.81156" lon="7.0851">
        <ele>793.9</ele>
        <time>2013-12-08T14:37:52Z</time>
      </trkpt>
      <trkpt lat="43.81151" lon="7.08534">
        <ele>792.95</ele>
        <time>2013-12-08T14:38:13Z</time>
      </trkpt>
      <trkpt lat="43.8115" lon="7.08561">
        <ele>790.96</ele>
        <time>2013-12-08T14:38:34Z</time>
      </trkpt>
      <trkpt lat="43.81145" lon="7.08584">
        <ele>789.5</ele>
        <time>2013-12-08T14:38:55Z</time>
      </trkpt>
      <trkpt lat="43.81146" lon="7.0861">
        <ele>786.91</ele>
        <time>2013-12-08T14:39:18Z</time>
      </trkpt>
      <trkpt lat="43.81151" lon="7.08635">
        <ele>784.18</ele>
        <time>2013-12-08T14:39:41Z</time>
      </trkpt>
      <trkpt lat="43.81149" lon="7.08661">
        <ele>782.33</ele>
        <time>2013-12-08T14:39:54Z</time>
      </trkpt>
      <trkpt lat="43.81142" lon="7.08683">
        <ele>781.58</ele>
        <time>2013-12-08T14:40:07Z</time>
      </trkpt>
      <trkpt lat="43.81129" lon="7.08703">
        <ele>783</ele>
        <time>2013-12-08T14:40:25Z</time>
      </trkpt>
      <trkpt lat="43.81121" lon="7.08727">
        <ele>782.85</ele>
        <time>2013-12-08T14:40:43Z</time>
      </trkpt>
      <trkpt lat="43.81105" lon="7.08742">
        <ele>783.89</ele>
        <time>2013-12-08T14:40:59Z</time>
      </trkpt>
      <trkpt lat="43.81088" lon="7.0875">
        <ele>786.16</ele>
        <time>2013-12-08T14:41:18Z</time>
      </trkpt>
      <trkpt lat="43.81087" lon="7.08775">
        <ele>784.59</ele>
        <time>2013-12-08T14:41:48Z</time>
      </trkpt>
      <trkpt lat="43.81084" lon="7.088">
        <ele>781.71</ele>
        <time>2013-12-08T14:42:11Z</time>
      </trkpt>
      <trkpt lat="43.81068" lon="7.08813">
        <ele>783.79</ele>
        <time>2013-12-08T14:42:54Z</time>
      </trkpt>
      <trkpt lat="43.81062" lon="7.08837">
        <ele>783.62</ele>
        <time>2013-12-08T14:43:17Z</time>
      </trkpt>
      <trkpt lat="43.8106" lon="7.08863">
        <ele>785.12</ele>
        <time>2013-12-08T14:43:43Z</time>
      </trkpt>
      <trkpt lat="43.81054" lon="7.08887">
        <ele>788.27</ele>
        <time>2013-12-08T14:44:08Z</time>
      </trkpt>
      <trkpt lat="43.81062" lon="7.0891">
        <ele>786.64</ele>
        <time>2013-12-08T14:44:28Z</time>
      </trkpt>
      <trkpt lat="43.81068" lon="7.08934">
        <ele>785.38</ele>
        <time>2013-12-08T14:44:50Z</time>
      </trkpt>
      <trkpt lat="43.81075" lon="7.08958">
        <ele>783.47</ele>
        <time>2013-12-08T14:45:12Z</time>
      </trkpt>
      <trkpt lat="43.81076" lon="7.08983">
        <ele>783.66</ele>
        <time>2013-12-08T14:45:33Z</time>
      </trkpt>
      <trkpt lat="43.81076" lon="7.09008">
        <ele>785.48</ele>
        <time>2013-12-08T14:45:59Z</time>
      </trkpt>
      <trkpt lat="43.81074" lon="7.09033">
        <ele>787.77</ele>
        <time>2013-12-08T14:46:26Z</time>
      </trkpt>
      <trkpt lat="43.81082" lon="7.09056">
        <ele>786.62</ele>
        <time>2013-12-08T14:46:46Z</time>
      </trkpt>
      <trkpt lat="43.81088" lon="7.0908">
        <ele>786.85</ele>
        <time>2013-12-08T14:47:05Z</time>
      </trkpt>
      <trkpt lat="43.81089" lon="7.09105">
        <ele>787.47</ele>
        <time>2013-12-08T14:47:28Z</time>
      </trkpt>
      <trkpt lat="43.81074" lon="7.09122">
        <ele>792.83</ele>
        <time>2013-12-08T14:47:47Z</time>
      </trkpt>
      <trkpt lat="43.81058" lon="7.09132">
        <ele>799.03</ele>
        <time>2013-12-08T14:48:08Z</time>
      </trkpt>
      <trkpt lat="43.8104" lon="7.09139">
        <ele>809.92</ele>
        <time>2013-12-08T14:48:33Z</time>
      </trkpt>
      <trkpt lat="43.81024" lon="7.09154">
        <ele>820.95</ele>
        <time>2013-12-08T14:48:48Z</time>
      </trkpt>
      <trkpt lat="43.81011" lon="7.09172">
        <ele>830.19</ele>
        <time>2013-12-08T14:49:05Z</time>
      </trkpt>
      <trkpt lat="43.81013" lon="7.09198">
        <ele>832.2</ele>
        <time>2013-12-08T14:49:22Z</time>
      </trkpt>
      <trkpt lat="43.81022" lon="7.09221">
        <ele>825.34</ele>
        <time>2013-12-08T14:49:40Z</time>
      </trkpt>
      <trkpt lat="43.81016" lon="7.09246">
        <ele>826.32</ele>
        <time>2013-12-08T14:50:01Z</time>
      </trkpt>
      <trkpt lat="43.81002" lon="7.09264">
        <ele>827.88</ele>
        <time>2013-12-08T14:50:19Z</time>
      </trkpt>
      <trkpt lat="43.80999" lon="7.09289">
        <ele>823.68</ele>
        <time>2013-12-08T14:50:37Z</time>
      </trkpt>
      <trkpt lat="43.80995" lon="7.09302">
        <ele>824.53</ele>
        <time>2013-12-08T14:50:46Z</time>
      </trkpt>
      <trkpt lat="43.80988" lon="7.09325">
        <ele>826.12</ele>
        <time>2013-12-08T14:51:09Z</time>
      </trkpt>
      <trkpt lat="43.80982" lon="7.09349">
        <ele>823.96</ele>
        <time>2013-12-08T14:51:29Z</time>
      </trkpt>
      <trkpt lat="43.80978" lon="7.09373">
        <ele>819.83</ele>
        <time>2013-12-08T14:51:50Z</time>
      </trkpt>
      <trkpt lat="43.80975" lon="7.09398">
        <ele>816.39</ele>
        <time>2013-12-08T14:52:11Z</time>
      </trkpt>
      <trkpt lat="43.80967" lon="7.09422">
        <ele>817.07</ele>
        <time>2013-12-08T14:52:31Z</time>
      </trkpt>
      <trkpt lat="43.8095" lon="7.0943">
        <ele>827.01</ele>
        <time>2013-12-08T14:52:52Z</time>
      </trkpt>
      <trkpt lat="43.80934" lon="7.09445">
        <ele>831.25</ele>
        <time>2013-12-08T14:53:11Z</time>
      </trkpt>
      <trkpt lat="43.80917" lon="7.09456">
        <ele>839.66</ele>
        <time>2013-12-08T14:53:27Z</time>
      </trkpt>
      <trkpt lat="43.809" lon="7.09471">
        <ele>850.36</ele>
        <time>2013-12-08T14:53:47Z</time>
      </trkpt>
      <trkpt lat="43.80886" lon="7.09486">
        <ele>858.42</ele>
        <time>2013-12-08T14:54:05Z</time>
      </trkpt>
      <trkpt lat="43.8088" lon="7.0951">
        <ele>860.92</ele>
        <time>2013-12-08T14:54:25Z</time>
      </trkpt>
      <trkpt lat="43.80879" lon="7.09536">
        <ele>859.61</ele>
        <time>2013-12-08T14:54:43Z</time>
      </trkpt>
      <trkpt lat="43.80887" lon="7.09558">
        <ele>853.89</ele>
        <time>2013-12-08T14:55:02Z</time>
      </trkpt>
      <trkpt lat="43.80894" lon="7.09582">
        <ele>849.45</ele>
        <time>2013-12-08T14:55:23Z</time>
      </trkpt>
      <trkpt lat="43.80898" lon="7.09607">
        <ele>846.45</ele>
        <time>2013-12-08T14:55:45Z</time>
      </trkpt>
      <trkpt lat="43.80906" lon="7.0963">
        <ele>843.57</ele>
        <time>2013-12-08T14:56:06Z</time>
      </trkpt>
      <trkpt lat="43.80904" lon="7.09655">
        <ele>844.52</ele>
        <time>2013-12-08T14:56:39Z</time>
      </trkpt>
      <trkpt lat="43.8089" lon="7.09671">
        <ele>849.55</ele>
        <time>2013-12-08T14:57:05Z</time>
      </trkpt>
      <trkpt lat="43.80872" lon="7.09675">
        <ele>857.08</ele>
        <time>2013-12-08T14:57:48Z</time>
      </trkpt>
      <trkpt lat="43.80854" lon="7.09666">
        <ele>864</ele>
        <time>2013-12-08T14:58:21Z</time>
      </trkpt>
      <trkpt lat="43.80839" lon="7.09654">
        <ele>869.79</ele>
        <time>2013-12-08T14:59:31Z</time>
      </trkpt>
      <trkpt lat="43.80845" lon="7.0963">
        <ele>870.07</ele>
        <time>2013-12-08T15:00:10Z</time>
      </trkpt>
      <trkpt lat="43.80847" lon="7.09604">
        <ele>871.69</ele>
        <time>2013-12-08T15:00:30Z</time>
      </trkpt>
      <trkpt lat="43.80832" lon="7.09589">
        <ele>878.95</ele>
        <time>2013-12-08T15:03:12Z</time>
      </trkpt>
      <trkpt lat="43.80826" lon="7.09613">
        <ele>878.64</ele>
        <time>2013-12-08T15:03:53Z</time>
      </trkpt>
      <trkpt lat="43.80816" lon="7.09634">
        <ele>880.3</ele>
        <time>2013-12-08T15:04:48Z</time>
      </trkpt>
      <trkpt lat="43.80799" lon="7.09644">
        <ele>885.45</ele>
        <time>2013-12-08T15:05:23Z</time>
      </trkpt>
      <trkpt lat="43.80783" lon="7.0963">
        <ele>892.38</ele>
        <time>2013-12-08T15:05:34Z</time>
      </trkpt>
      <trkpt lat="43.80768" lon="7.09616">
        <ele>897.97</ele>
        <time>2013-12-08T15:05:48Z</time>
      </trkpt>
      <trkpt lat="43.8075" lon="7.09613">
        <ele>901.7</ele>
        <time>2013-12-08T15:06:14Z</time>
      </trkpt>
      <trkpt lat="43.80732" lon="7.09617">
        <ele>901.18</ele>
        <time>2013-12-08T15:06:29Z</time>
      </trkpt>
      <trkpt lat="43.80714" lon="7.09613">
        <ele>901.8</ele>
        <time>2013-12-08T15:06:52Z</time>
      </trkpt>
      <trkpt lat="43.80695" lon="7.09614">
        <ele>901.53</ele>
        <time>2013-12-08T15:07:03Z</time>
      </trkpt>
      <trkpt lat="43.80678" lon="7.09608">
        <ele>903.28</ele>
        <time>2013-12-08T15:07:22Z</time>
      </trkpt>
    </trkseg>
  </trk>
</gpx>